<?xml version="1.0" encoding="UTF-8" standalone="no" ?>
<gpx xmlns="http://www.topografix.com/GPX/1/1" xmlns:xsi="http://www.w3.org/2001/XMLSchema-instance" xsi:schemaLocation="http://www.topografix.com/GPX/1/1 http://www.topografix.com/GPX/1/1/gpx.xsd" version="1.1" creator="VisuGPX - https://www.visugpx.com">
  <metadata>
    <name>Cascade de Clars</name>
    <desc><![CDATA[Cascade de clars ]]></desc>
  </metadata>
  <trk>
    <name><![CDATA[Cascade de Clars_1]]></name>
    <trkseg>
      <trkpt lat="43.73704" lon="6.76343">
        <ele>916.41552734375</ele>
        <time>2016-11-06T14:21:00.000Z</time>
      </trkpt>
      <trkpt lat="43.73707" lon="6.76343">
        <ele>916.63452148438</ele>
        <time>2016-11-06T14:21:03.000Z</time>
      </trkpt>
      <trkpt lat="43.73705" lon="6.76346">
        <ele>916.72198486328</ele>
        <time>2016-11-06T14:21:06.000Z</time>
      </trkpt>
      <trkpt lat="43.73706" lon="6.76346">
        <ele>916.77905273438</ele>
        <time>2016-11-06T14:21:09.000Z</time>
      </trkpt>
      <trkpt lat="43.73706" lon="6.76343">
        <ele>916.75067138672</ele>
        <time>2016-11-06T14:21:11.000Z</time>
      </trkpt>
      <trkpt lat="43.73708" lon="6.7634">
        <ele>916.779296875</ele>
        <time>2016-11-06T14:21:14.000Z</time>
      </trkpt>
      <trkpt lat="43.73709" lon="6.76338">
        <ele>916.72961425781</ele>
        <time>2016-11-06T14:21:16.000Z</time>
      </trkpt>
      <trkpt lat="43.73709" lon="6.76333">
        <ele>916.57928466797</ele>
        <time>2016-11-06T14:21:19.000Z</time>
      </trkpt>
      <trkpt lat="43.73709" lon="6.7633">
        <ele>916.443359375</ele>
        <time>2016-11-06T14:21:21.000Z</time>
      </trkpt>
      <trkpt lat="43.7371" lon="6.76327">
        <ele>916.41064453125</ele>
        <time>2016-11-06T14:21:23.000Z</time>
      </trkpt>
      <trkpt lat="43.73709" lon="6.76322">
        <ele>916.41180419922</ele>
        <time>2016-11-06T14:21:26.000Z</time>
      </trkpt>
      <trkpt lat="43.73708" lon="6.76318">
        <ele>916.42272949219</ele>
        <time>2016-11-06T14:21:28.000Z</time>
      </trkpt>
      <trkpt lat="43.73709" lon="6.76314">
        <ele>916.58166503906</ele>
        <time>2016-11-06T14:21:31.000Z</time>
      </trkpt>
      <trkpt lat="43.73712" lon="6.7631">
        <ele>916.83758544922</ele>
        <time>2016-11-06T14:21:34.000Z</time>
      </trkpt>
      <trkpt lat="43.73714" lon="6.76308">
        <ele>917.14147949219</ele>
        <time>2016-11-06T14:21:36.000Z</time>
      </trkpt>
      <trkpt lat="43.73716" lon="6.76304">
        <ele>917.51232910156</ele>
        <time>2016-11-06T14:21:39.000Z</time>
      </trkpt>
      <trkpt lat="43.73717" lon="6.76301">
        <ele>917.93115234375</ele>
        <time>2016-11-06T14:21:42.000Z</time>
      </trkpt>
      <trkpt lat="43.73719" lon="6.76298">
        <ele>918.36993408203</ele>
        <time>2016-11-06T14:21:44.000Z</time>
      </trkpt>
      <trkpt lat="43.7372" lon="6.76296">
        <ele>918.7451171875</ele>
        <time>2016-11-06T14:21:46.000Z</time>
      </trkpt>
      <trkpt lat="43.73721" lon="6.76293">
        <ele>919.09313964844</ele>
        <time>2016-11-06T14:21:48.000Z</time>
      </trkpt>
      <trkpt lat="43.73721" lon="6.7629">
        <ele>919.384765625</ele>
        <time>2016-11-06T14:21:50.000Z</time>
      </trkpt>
      <trkpt lat="43.73723" lon="6.76285">
        <ele>919.71600341797</ele>
        <time>2016-11-06T14:21:53.000Z</time>
      </trkpt>
      <trkpt lat="43.73725" lon="6.76282">
        <ele>920.06433105469</ele>
        <time>2016-11-06T14:21:55.000Z</time>
      </trkpt>
      <trkpt lat="43.73724" lon="6.7628">
        <ele>920.36602783203</ele>
        <time>2016-11-06T14:21:57.000Z</time>
      </trkpt>
      <trkpt lat="43.73725" lon="6.76278">
        <ele>920.63342285156</ele>
        <time>2016-11-06T14:21:59.000Z</time>
      </trkpt>
      <trkpt lat="43.73726" lon="6.76278">
        <ele>920.91424560547</ele>
        <time>2016-11-06T14:22:01.000Z</time>
      </trkpt>
      <trkpt lat="43.73727" lon="6.76275">
        <ele>921.16345214844</ele>
        <time>2016-11-06T14:22:04.000Z</time>
      </trkpt>
      <trkpt lat="43.73728" lon="6.7627">
        <ele>921.39538574219</ele>
        <time>2016-11-06T14:22:07.000Z</time>
      </trkpt>
      <trkpt lat="43.73729" lon="6.76268">
        <ele>921.65264892578</ele>
        <time>2016-11-06T14:22:09.000Z</time>
      </trkpt>
      <trkpt lat="43.73729" lon="6.76265">
        <ele>921.94299316406</ele>
        <time>2016-11-06T14:22:12.000Z</time>
      </trkpt>
      <trkpt lat="43.7373" lon="6.76262">
        <ele>922.25</ele>
        <time>2016-11-06T14:22:14.000Z</time>
      </trkpt>
      <trkpt lat="43.73731" lon="6.76256">
        <ele>922.58044433594</ele>
        <time>2016-11-06T14:22:17.000Z</time>
      </trkpt>
      <trkpt lat="43.73732" lon="6.76253">
        <ele>922.90020751953</ele>
        <time>2016-11-06T14:22:19.000Z</time>
      </trkpt>
      <trkpt lat="43.73734" lon="6.7625">
        <ele>923.27294921875</ele>
        <time>2016-11-06T14:22:22.000Z</time>
      </trkpt>
      <trkpt lat="43.73736" lon="6.76246">
        <ele>923.71484375</ele>
        <time>2016-11-06T14:22:25.000Z</time>
      </trkpt>
      <trkpt lat="43.73737" lon="6.76241">
        <ele>924.19299316406</ele>
        <time>2016-11-06T14:22:28.000Z</time>
      </trkpt>
      <trkpt lat="43.73738" lon="6.76237">
        <ele>924.63684082031</ele>
        <time>2016-11-06T14:22:30.000Z</time>
      </trkpt>
      <trkpt lat="43.73739" lon="6.76232">
        <ele>925.09899902344</ele>
        <time>2016-11-06T14:22:33.000Z</time>
      </trkpt>
      <trkpt lat="43.73739" lon="6.76229">
        <ele>925.505859375</ele>
        <time>2016-11-06T14:22:35.000Z</time>
      </trkpt>
      <trkpt lat="43.73738" lon="6.76226">
        <ele>925.79870605469</ele>
        <time>2016-11-06T14:22:37.000Z</time>
      </trkpt>
      <trkpt lat="43.73738" lon="6.76221">
        <ele>926.03125</ele>
        <time>2016-11-06T14:22:40.000Z</time>
      </trkpt>
      <trkpt lat="43.73738" lon="6.76218">
        <ele>926.24639892578</ele>
        <time>2016-11-06T14:22:42.000Z</time>
      </trkpt>
      <trkpt lat="43.73738" lon="6.76215">
        <ele>926.38165283203</ele>
        <time>2016-11-06T14:22:44.000Z</time>
      </trkpt>
      <trkpt lat="43.73737" lon="6.76211">
        <ele>926.4716796875</ele>
        <time>2016-11-06T14:22:47.000Z</time>
      </trkpt>
      <trkpt lat="43.73736" lon="6.76207">
        <ele>926.54656982422</ele>
        <time>2016-11-06T14:22:50.000Z</time>
      </trkpt>
      <trkpt lat="43.73735" lon="6.76204">
        <ele>926.57879638672</ele>
        <time>2016-11-06T14:22:52.000Z</time>
      </trkpt>
      <trkpt lat="43.73735" lon="6.76201">
        <ele>926.57666015625</ele>
        <time>2016-11-06T14:22:54.000Z</time>
      </trkpt>
      <trkpt lat="43.73733" lon="6.76198">
        <ele>926.53698730469</ele>
        <time>2016-11-06T14:22:57.000Z</time>
      </trkpt>
      <trkpt lat="43.73732" lon="6.76195">
        <ele>926.47772216797</ele>
        <time>2016-11-06T14:22:59.000Z</time>
      </trkpt>
      <trkpt lat="43.7373" lon="6.76191">
        <ele>926.38146972656</ele>
        <time>2016-11-06T14:23:02.000Z</time>
      </trkpt>
      <trkpt lat="43.7373" lon="6.76189">
        <ele>926.29187011719</ele>
        <time>2016-11-06T14:23:05.000Z</time>
      </trkpt>
      <trkpt lat="43.73728" lon="6.76186">
        <ele>926.1279296875</ele>
        <time>2016-11-06T14:23:08.000Z</time>
      </trkpt>
      <trkpt lat="43.73727" lon="6.76185">
        <ele>925.99432373047</ele>
        <time>2016-11-06T14:23:10.000Z</time>
      </trkpt>
      <trkpt lat="43.73725" lon="6.7618">
        <ele>925.814453125</ele>
        <time>2016-11-06T14:23:13.000Z</time>
      </trkpt>
      <trkpt lat="43.73724" lon="6.76177">
        <ele>925.64178466797</ele>
        <time>2016-11-06T14:23:15.000Z</time>
      </trkpt>
      <trkpt lat="43.73722" lon="6.76173">
        <ele>925.41082763672</ele>
        <time>2016-11-06T14:23:18.000Z</time>
      </trkpt>
      <trkpt lat="43.73721" lon="6.7617">
        <ele>925.22375488281</ele>
        <time>2016-11-06T14:23:20.000Z</time>
      </trkpt>
      <trkpt lat="43.73719" lon="6.76167">
        <ele>924.98522949219</ele>
        <time>2016-11-06T14:23:22.000Z</time>
      </trkpt>
      <trkpt lat="43.73716" lon="6.76162">
        <ele>924.68634033203</ele>
        <time>2016-11-06T14:23:25.000Z</time>
      </trkpt>
      <trkpt lat="43.73713" lon="6.76158">
        <ele>924.31982421875</ele>
        <time>2016-11-06T14:23:28.000Z</time>
      </trkpt>
      <trkpt lat="43.73711" lon="6.76153">
        <ele>923.93975830078</ele>
        <time>2016-11-06T14:23:31.000Z</time>
      </trkpt>
      <trkpt lat="43.73712" lon="6.76148">
        <ele>923.63916015625</ele>
        <time>2016-11-06T14:23:34.000Z</time>
      </trkpt>
      <trkpt lat="43.73714" lon="6.76144">
        <ele>923.50177001953</ele>
        <time>2016-11-06T14:23:37.000Z</time>
      </trkpt>
      <trkpt lat="43.73717" lon="6.76141">
        <ele>923.62420654297</ele>
        <time>2016-11-06T14:23:40.000Z</time>
      </trkpt>
      <trkpt lat="43.73718" lon="6.76139">
        <ele>923.90704345703</ele>
        <time>2016-11-06T14:23:42.000Z</time>
      </trkpt>
      <trkpt lat="43.73719" lon="6.76137">
        <ele>924.341796875</ele>
        <time>2016-11-06T14:23:44.000Z</time>
      </trkpt>
      <trkpt lat="43.73721" lon="6.76134">
        <ele>924.79748535156</ele>
        <time>2016-11-06T14:23:47.000Z</time>
      </trkpt>
      <trkpt lat="43.73722" lon="6.76133">
        <ele>925.18438720703</ele>
        <time>2016-11-06T14:23:49.000Z</time>
      </trkpt>
      <trkpt lat="43.73724" lon="6.76131">
        <ele>925.54376220703</ele>
        <time>2016-11-06T14:23:52.000Z</time>
      </trkpt>
      <trkpt lat="43.73726" lon="6.76127">
        <ele>925.92138671875</ele>
        <time>2016-11-06T14:23:55.000Z</time>
      </trkpt>
      <trkpt lat="43.73727" lon="6.76124">
        <ele>926.28234863281</ele>
        <time>2016-11-06T14:23:58.000Z</time>
      </trkpt>
      <trkpt lat="43.73727" lon="6.7612">
        <ele>926.58740234375</ele>
        <time>2016-11-06T14:24:01.000Z</time>
      </trkpt>
      <trkpt lat="43.73728" lon="6.76118">
        <ele>926.8935546875</ele>
        <time>2016-11-06T14:24:03.000Z</time>
      </trkpt>
      <trkpt lat="43.73729" lon="6.76117">
        <ele>927.12469482422</ele>
        <time>2016-11-06T14:24:05.000Z</time>
      </trkpt>
      <trkpt lat="43.73729" lon="6.76114">
        <ele>927.29754638672</ele>
        <time>2016-11-06T14:24:08.000Z</time>
      </trkpt>
      <trkpt lat="43.73729" lon="6.76112">
        <ele>927.43182373047</ele>
        <time>2016-11-06T14:24:11.000Z</time>
      </trkpt>
      <trkpt lat="43.73729" lon="6.7611">
        <ele>927.52673339844</ele>
        <time>2016-11-06T14:24:13.000Z</time>
      </trkpt>
      <trkpt lat="43.73729" lon="6.76107">
        <ele>927.60577392578</ele>
        <time>2016-11-06T14:24:16.000Z</time>
      </trkpt>
      <trkpt lat="43.7373" lon="6.76105">
        <ele>927.68505859375</ele>
        <time>2016-11-06T14:24:18.000Z</time>
      </trkpt>
      <trkpt lat="43.7373" lon="6.76102">
        <ele>927.76452636719</ele>
        <time>2016-11-06T14:24:20.000Z</time>
      </trkpt>
      <trkpt lat="43.7373" lon="6.76098">
        <ele>927.82977294922</ele>
        <time>2016-11-06T14:24:23.000Z</time>
      </trkpt>
      <trkpt lat="43.7373" lon="6.76094">
        <ele>927.91809082031</ele>
        <time>2016-11-06T14:24:26.000Z</time>
      </trkpt>
      <trkpt lat="43.7373" lon="6.76089">
        <ele>928.00817871094</ele>
        <time>2016-11-06T14:24:29.000Z</time>
      </trkpt>
      <trkpt lat="43.73732" lon="6.76085">
        <ele>928.13348388672</ele>
        <time>2016-11-06T14:24:32.000Z</time>
      </trkpt>
      <trkpt lat="43.73733" lon="6.76082">
        <ele>928.28692626953</ele>
        <time>2016-11-06T14:24:35.000Z</time>
      </trkpt>
      <trkpt lat="43.73734" lon="6.76079">
        <ele>928.462890625</ele>
        <time>2016-11-06T14:24:38.000Z</time>
      </trkpt>
      <trkpt lat="43.73735" lon="6.76076">
        <ele>928.67547607422</ele>
        <time>2016-11-06T14:24:41.000Z</time>
      </trkpt>
      <trkpt lat="43.73735" lon="6.76074">
        <ele>928.87713623047</ele>
        <time>2016-11-06T14:24:43.000Z</time>
      </trkpt>
      <trkpt lat="43.73737" lon="6.7607">
        <ele>929.06689453125</ele>
        <time>2016-11-06T14:24:46.000Z</time>
      </trkpt>
      <trkpt lat="43.73739" lon="6.76067">
        <ele>929.29217529297</ele>
        <time>2016-11-06T14:24:49.000Z</time>
      </trkpt>
      <trkpt lat="43.7374" lon="6.76066">
        <ele>929.52783203125</ele>
        <time>2016-11-06T14:24:51.000Z</time>
      </trkpt>
      <trkpt lat="43.73742" lon="6.76065">
        <ele>929.77362060547</ele>
        <time>2016-11-06T14:24:53.000Z</time>
      </trkpt>
      <trkpt lat="43.73745" lon="6.76062">
        <ele>930.10028076172</ele>
        <time>2016-11-06T14:24:56.000Z</time>
      </trkpt>
      <trkpt lat="43.73746" lon="6.7606">
        <ele>930.43426513672</ele>
        <time>2016-11-06T14:24:58.000Z</time>
      </trkpt>
      <trkpt lat="43.73748" lon="6.76057">
        <ele>930.73272705078</ele>
        <time>2016-11-06T14:25:00.000Z</time>
      </trkpt>
      <trkpt lat="43.73751" lon="6.76055">
        <ele>931.09729003906</ele>
        <time>2016-11-06T14:25:03.000Z</time>
      </trkpt>
      <trkpt lat="43.73754" lon="6.76052">
        <ele>931.58074951172</ele>
        <time>2016-11-06T14:25:06.000Z</time>
      </trkpt>
      <trkpt lat="43.73756" lon="6.76051">
        <ele>932.05554199219</ele>
        <time>2016-11-06T14:25:08.000Z</time>
      </trkpt>
      <trkpt lat="43.73759" lon="6.76049">
        <ele>932.65295410156</ele>
        <time>2016-11-06T14:25:11.000Z</time>
      </trkpt>
      <trkpt lat="43.73761" lon="6.76048">
        <ele>933.328125</ele>
        <time>2016-11-06T14:25:13.000Z</time>
      </trkpt>
      <trkpt lat="43.73764" lon="6.76046">
        <ele>934.0185546875</ele>
        <time>2016-11-06T14:25:16.000Z</time>
      </trkpt>
      <trkpt lat="43.73767" lon="6.76042">
        <ele>934.67028808594</ele>
        <time>2016-11-06T14:25:19.000Z</time>
      </trkpt>
      <trkpt lat="43.73769" lon="6.7604">
        <ele>935.35516357422</ele>
        <time>2016-11-06T14:25:21.000Z</time>
      </trkpt>
      <trkpt lat="43.73771" lon="6.76038">
        <ele>935.96008300781</ele>
        <time>2016-11-06T14:25:24.000Z</time>
      </trkpt>
      <trkpt lat="43.73774" lon="6.76036">
        <ele>936.57080078125</ele>
        <time>2016-11-06T14:25:27.000Z</time>
      </trkpt>
      <trkpt lat="43.73775" lon="6.76034">
        <ele>937.12805175781</ele>
        <time>2016-11-06T14:25:29.000Z</time>
      </trkpt>
      <trkpt lat="43.73777" lon="6.7603">
        <ele>937.56219482422</ele>
        <time>2016-11-06T14:25:32.000Z</time>
      </trkpt>
      <trkpt lat="43.73777" lon="6.76028">
        <ele>937.89959716797</ele>
        <time>2016-11-06T14:25:34.000Z</time>
      </trkpt>
      <trkpt lat="43.73779" lon="6.76024">
        <ele>938.19873046875</ele>
        <time>2016-11-06T14:25:37.000Z</time>
      </trkpt>
      <trkpt lat="43.7378" lon="6.76022">
        <ele>938.40313720703</ele>
        <time>2016-11-06T14:25:39.000Z</time>
      </trkpt>
      <trkpt lat="43.7378" lon="6.76017">
        <ele>938.49938964844</ele>
        <time>2016-11-06T14:25:42.000Z</time>
      </trkpt>
      <trkpt lat="43.7378" lon="6.76014">
        <ele>938.53063964844</ele>
        <time>2016-11-06T14:25:45.000Z</time>
      </trkpt>
      <trkpt lat="43.73779" lon="6.7601">
        <ele>938.48400878906</ele>
        <time>2016-11-06T14:25:48.000Z</time>
      </trkpt>
      <trkpt lat="43.73779" lon="6.76005">
        <ele>938.32507324219</ele>
        <time>2016-11-06T14:25:51.000Z</time>
      </trkpt>
      <trkpt lat="43.73779" lon="6.76002">
        <ele>938.1025390625</ele>
        <time>2016-11-06T14:25:53.000Z</time>
      </trkpt>
      <trkpt lat="43.73779" lon="6.75998">
        <ele>937.84020996094</ele>
        <time>2016-11-06T14:25:56.000Z</time>
      </trkpt>
      <trkpt lat="43.73778" lon="6.75994">
        <ele>937.52227783203</ele>
        <time>2016-11-06T14:25:59.000Z</time>
      </trkpt>
      <trkpt lat="43.73777" lon="6.75989">
        <ele>937.12805175781</ele>
        <time>2016-11-06T14:26:02.000Z</time>
      </trkpt>
      <trkpt lat="43.73776" lon="6.75987">
        <ele>936.72497558594</ele>
        <time>2016-11-06T14:26:04.000Z</time>
      </trkpt>
      <trkpt lat="43.73775" lon="6.75984">
        <ele>936.24865722656</ele>
        <time>2016-11-06T14:26:06.000Z</time>
      </trkpt>
      <trkpt lat="43.73774" lon="6.75981">
        <ele>935.74426269531</ele>
        <time>2016-11-06T14:26:08.000Z</time>
      </trkpt>
      <trkpt lat="43.73772" lon="6.75977">
        <ele>935.2158203125</ele>
        <time>2016-11-06T14:26:11.000Z</time>
      </trkpt>
      <trkpt lat="43.73771" lon="6.75972">
        <ele>934.67608642578</ele>
        <time>2016-11-06T14:26:14.000Z</time>
      </trkpt>
      <trkpt lat="43.73771" lon="6.7597">
        <ele>934.13800048828</ele>
        <time>2016-11-06T14:26:16.000Z</time>
      </trkpt>
      <trkpt lat="43.73771" lon="6.75966">
        <ele>933.64392089844</ele>
        <time>2016-11-06T14:26:18.000Z</time>
      </trkpt>
      <trkpt lat="43.73771" lon="6.75961">
        <ele>933.17205810547</ele>
        <time>2016-11-06T14:26:21.000Z</time>
      </trkpt>
      <trkpt lat="43.73771" lon="6.75957">
        <ele>932.77606201172</ele>
        <time>2016-11-06T14:26:24.000Z</time>
      </trkpt>
      <trkpt lat="43.73773" lon="6.75954">
        <ele>932.54278564453</ele>
        <time>2016-11-06T14:26:27.000Z</time>
      </trkpt>
      <trkpt lat="43.73775" lon="6.7595">
        <ele>932.40954589844</ele>
        <time>2016-11-06T14:26:30.000Z</time>
      </trkpt>
      <trkpt lat="43.73778" lon="6.75947">
        <ele>932.36541748047</ele>
        <time>2016-11-06T14:26:33.000Z</time>
      </trkpt>
      <trkpt lat="43.7378" lon="6.75943">
        <ele>932.4365234375</ele>
        <time>2016-11-06T14:26:36.000Z</time>
      </trkpt>
      <trkpt lat="43.7378" lon="6.7594">
        <ele>932.51086425781</ele>
        <time>2016-11-06T14:26:38.000Z</time>
      </trkpt>
      <trkpt lat="43.73782" lon="6.75937">
        <ele>932.57727050781</ele>
        <time>2016-11-06T14:26:40.000Z</time>
      </trkpt>
      <trkpt lat="43.73784" lon="6.75935">
        <ele>932.66162109375</ele>
        <time>2016-11-06T14:26:43.000Z</time>
      </trkpt>
      <trkpt lat="43.73786" lon="6.75933">
        <ele>932.74920654297</ele>
        <time>2016-11-06T14:26:46.000Z</time>
      </trkpt>
      <trkpt lat="43.73788" lon="6.75931">
        <ele>932.83532714844</ele>
        <time>2016-11-06T14:26:48.000Z</time>
      </trkpt>
      <trkpt lat="43.73792" lon="6.75927">
        <ele>933.03039550781</ele>
        <time>2016-11-06T14:26:51.000Z</time>
      </trkpt>
      <trkpt lat="43.73793" lon="6.75925">
        <ele>933.236328125</ele>
        <time>2016-11-06T14:26:53.000Z</time>
      </trkpt>
      <trkpt lat="43.73797" lon="6.75922">
        <ele>933.44757080078</ele>
        <time>2016-11-06T14:26:56.000Z</time>
      </trkpt>
      <trkpt lat="43.73799" lon="6.75921">
        <ele>933.7041015625</ele>
        <time>2016-11-06T14:26:58.000Z</time>
      </trkpt>
      <trkpt lat="43.73803" lon="6.7592">
        <ele>934.05615234375</ele>
        <time>2016-11-06T14:27:01.000Z</time>
      </trkpt>
      <trkpt lat="43.73806" lon="6.7592">
        <ele>934.43475341797</ele>
        <time>2016-11-06T14:27:03.000Z</time>
      </trkpt>
      <trkpt lat="43.73807" lon="6.75919">
        <ele>934.81622314453</ele>
        <time>2016-11-06T14:27:06.000Z</time>
      </trkpt>
      <trkpt lat="43.73809" lon="6.75917">
        <ele>935.16162109375</ele>
        <time>2016-11-06T14:27:10.000Z</time>
      </trkpt>
      <trkpt lat="43.73812" lon="6.75914">
        <ele>935.45178222656</ele>
        <time>2016-11-06T14:27:13.000Z</time>
      </trkpt>
      <trkpt lat="43.73816" lon="6.75911">
        <ele>935.63397216797</ele>
        <time>2016-11-06T14:27:16.000Z</time>
      </trkpt>
      <trkpt lat="43.73818" lon="6.75909">
        <ele>935.72576904297</ele>
        <time>2016-11-06T14:27:18.000Z</time>
      </trkpt>
      <trkpt lat="43.73821" lon="6.75907">
        <ele>935.81951904297</ele>
        <time>2016-11-06T14:27:21.000Z</time>
      </trkpt>
      <trkpt lat="43.73825" lon="6.75905">
        <ele>935.95520019531</ele>
        <time>2016-11-06T14:27:24.000Z</time>
      </trkpt>
      <trkpt lat="43.73826" lon="6.75903">
        <ele>936.03887939453</ele>
        <time>2016-11-06T14:27:26.000Z</time>
      </trkpt>
      <trkpt lat="43.73829" lon="6.759">
        <ele>936.10021972656</ele>
        <time>2016-11-06T14:27:29.000Z</time>
      </trkpt>
      <trkpt lat="43.7383" lon="6.75897">
        <ele>936.12969970703</ele>
        <time>2016-11-06T14:27:31.000Z</time>
      </trkpt>
      <trkpt lat="43.73833" lon="6.75895">
        <ele>936.13562011719</ele>
        <time>2016-11-06T14:27:34.000Z</time>
      </trkpt>
      <trkpt lat="43.73835" lon="6.75894">
        <ele>936.13800048828</ele>
        <time>2016-11-06T14:27:36.000Z</time>
      </trkpt>
      <trkpt lat="43.73837" lon="6.75893">
        <ele>936.24157714844</ele>
        <time>2016-11-06T14:27:39.000Z</time>
      </trkpt>
      <trkpt lat="43.7384" lon="6.75891">
        <ele>936.42742919922</ele>
        <time>2016-11-06T14:27:41.000Z</time>
      </trkpt>
      <trkpt lat="43.73842" lon="6.7589">
        <ele>936.7490234375</ele>
        <time>2016-11-06T14:27:44.000Z</time>
      </trkpt>
      <trkpt lat="43.73845" lon="6.75888">
        <ele>937.12286376953</ele>
        <time>2016-11-06T14:27:47.000Z</time>
      </trkpt>
      <trkpt lat="43.73847" lon="6.75888">
        <ele>937.55389404297</ele>
        <time>2016-11-06T14:27:49.000Z</time>
      </trkpt>
      <trkpt lat="43.73851" lon="6.75887">
        <ele>938.09881591797</ele>
        <time>2016-11-06T14:27:52.000Z</time>
      </trkpt>
      <trkpt lat="43.73853" lon="6.75887">
        <ele>938.65264892578</ele>
        <time>2016-11-06T14:27:54.000Z</time>
      </trkpt>
      <trkpt lat="43.73854" lon="6.75887">
        <ele>939.23840332031</ele>
        <time>2016-11-06T14:27:56.000Z</time>
      </trkpt>
      <trkpt lat="43.73856" lon="6.75888">
        <ele>939.85510253906</ele>
        <time>2016-11-06T14:27:58.000Z</time>
      </trkpt>
      <trkpt lat="43.73857" lon="6.75888">
        <ele>940.45245361328</ele>
        <time>2016-11-06T14:28:01.000Z</time>
      </trkpt>
      <trkpt lat="43.73858" lon="6.75885">
        <ele>940.77325439453</ele>
        <time>2016-11-06T14:28:04.000Z</time>
      </trkpt>
      <trkpt lat="43.73861" lon="6.75882">
        <ele>941.03302001953</ele>
        <time>2016-11-06T14:28:07.000Z</time>
      </trkpt>
      <trkpt lat="43.73866" lon="6.75882">
        <ele>941.47674560547</ele>
        <time>2016-11-06T14:28:10.000Z</time>
      </trkpt>
      <trkpt lat="43.73868" lon="6.75882">
        <ele>941.92175292969</ele>
        <time>2016-11-06T14:28:12.000Z</time>
      </trkpt>
      <trkpt lat="43.73869" lon="6.75879">
        <ele>942.21893310547</ele>
        <time>2016-11-06T14:28:15.000Z</time>
      </trkpt>
      <trkpt lat="43.7387" lon="6.75877">
        <ele>942.56658935547</ele>
        <time>2016-11-06T14:28:17.000Z</time>
      </trkpt>
      <trkpt lat="43.7387" lon="6.75875">
        <ele>942.86950683594</ele>
        <time>2016-11-06T14:28:19.000Z</time>
      </trkpt>
      <trkpt lat="43.73872" lon="6.75872">
        <ele>942.85693359375</ele>
        <time>2016-11-06T14:28:22.000Z</time>
      </trkpt>
      <trkpt lat="43.73873" lon="6.75868">
        <ele>942.67346191406</ele>
        <time>2016-11-06T14:28:24.000Z</time>
      </trkpt>
      <trkpt lat="43.73874" lon="6.75864">
        <ele>942.47137451172</ele>
        <time>2016-11-06T14:28:26.000Z</time>
      </trkpt>
      <trkpt lat="43.73877" lon="6.75861">
        <ele>942.32598876953</ele>
        <time>2016-11-06T14:28:29.000Z</time>
      </trkpt>
      <trkpt lat="43.73878" lon="6.75858">
        <ele>942.17419433594</ele>
        <time>2016-11-06T14:28:31.000Z</time>
      </trkpt>
      <trkpt lat="43.73878" lon="6.75854">
        <ele>941.92071533203</ele>
        <time>2016-11-06T14:28:33.000Z</time>
      </trkpt>
      <trkpt lat="43.73878" lon="6.7585">
        <ele>941.58923339844</ele>
        <time>2016-11-06T14:28:36.000Z</time>
      </trkpt>
      <trkpt lat="43.73878" lon="6.75845">
        <ele>941.19873046875</ele>
        <time>2016-11-06T14:28:39.000Z</time>
      </trkpt>
      <trkpt lat="43.73882" lon="6.75841">
        <ele>940.84649658203</ele>
        <time>2016-11-06T14:28:42.000Z</time>
      </trkpt>
      <trkpt lat="43.73885" lon="6.7584">
        <ele>940.64660644531</ele>
        <time>2016-11-06T14:28:44.000Z</time>
      </trkpt>
      <trkpt lat="43.73886" lon="6.75838">
        <ele>940.55603027344</ele>
        <time>2016-11-06T14:28:46.000Z</time>
      </trkpt>
      <trkpt lat="43.73886" lon="6.75834">
        <ele>940.46759033203</ele>
        <time>2016-11-06T14:28:49.000Z</time>
      </trkpt>
      <trkpt lat="43.73886" lon="6.7583">
        <ele>940.47100830078</ele>
        <time>2016-11-06T14:28:51.000Z</time>
      </trkpt>
      <trkpt lat="43.73888" lon="6.75826">
        <ele>940.46173095703</ele>
        <time>2016-11-06T14:28:54.000Z</time>
      </trkpt>
      <trkpt lat="43.73891" lon="6.75823">
        <ele>940.44665527344</ele>
        <time>2016-11-06T14:28:56.000Z</time>
      </trkpt>
      <trkpt lat="43.73893" lon="6.75821">
        <ele>940.51416015625</ele>
        <time>2016-11-06T14:28:58.000Z</time>
      </trkpt>
      <trkpt lat="43.73896" lon="6.75819">
        <ele>940.8486328125</ele>
        <time>2016-11-06T14:29:00.000Z</time>
      </trkpt>
      <trkpt lat="43.73897" lon="6.75816">
        <ele>941.28009033203</ele>
        <time>2016-11-06T14:29:02.000Z</time>
      </trkpt>
      <trkpt lat="43.739" lon="6.75813">
        <ele>941.7763671875</ele>
        <time>2016-11-06T14:29:05.000Z</time>
      </trkpt>
      <trkpt lat="43.73903" lon="6.75811">
        <ele>942.26971435547</ele>
        <time>2016-11-06T14:29:07.000Z</time>
      </trkpt>
      <trkpt lat="43.73905" lon="6.75808">
        <ele>942.73809814453</ele>
        <time>2016-11-06T14:29:10.000Z</time>
      </trkpt>
      <trkpt lat="43.73906" lon="6.75805">
        <ele>943.11004638672</ele>
        <time>2016-11-06T14:29:12.000Z</time>
      </trkpt>
      <trkpt lat="43.73906" lon="6.75803">
        <ele>943.40362548828</ele>
        <time>2016-11-06T14:29:14.000Z</time>
      </trkpt>
      <trkpt lat="43.73906" lon="6.758">
        <ele>943.56506347656</ele>
        <time>2016-11-06T14:29:16.000Z</time>
      </trkpt>
      <trkpt lat="43.73908" lon="6.75795">
        <ele>943.63391113281</ele>
        <time>2016-11-06T14:29:19.000Z</time>
      </trkpt>
      <trkpt lat="43.73909" lon="6.75792">
        <ele>943.63836669922</ele>
        <time>2016-11-06T14:29:21.000Z</time>
      </trkpt>
      <trkpt lat="43.73909" lon="6.75787">
        <ele>943.58312988281</ele>
        <time>2016-11-06T14:29:24.000Z</time>
      </trkpt>
      <trkpt lat="43.73909" lon="6.75784">
        <ele>943.53137207031</ele>
        <time>2016-11-06T14:29:26.000Z</time>
      </trkpt>
      <trkpt lat="43.7391" lon="6.7578">
        <ele>943.48260498047</ele>
        <time>2016-11-06T14:29:29.000Z</time>
      </trkpt>
      <trkpt lat="43.73911" lon="6.75777">
        <ele>943.39111328125</ele>
        <time>2016-11-06T14:29:31.000Z</time>
      </trkpt>
      <trkpt lat="43.73911" lon="6.75773">
        <ele>943.25994873047</ele>
        <time>2016-11-06T14:29:34.000Z</time>
      </trkpt>
      <trkpt lat="43.73911" lon="6.7577">
        <ele>943.10900878906</ele>
        <time>2016-11-06T14:29:36.000Z</time>
      </trkpt>
      <trkpt lat="43.7391" lon="6.75766">
        <ele>942.87030029297</ele>
        <time>2016-11-06T14:29:39.000Z</time>
      </trkpt>
      <trkpt lat="43.7391" lon="6.75763">
        <ele>942.59533691406</ele>
        <time>2016-11-06T14:29:42.000Z</time>
      </trkpt>
      <trkpt lat="43.7391" lon="6.75761">
        <ele>942.30291748047</ele>
        <time>2016-11-06T14:29:44.000Z</time>
      </trkpt>
      <trkpt lat="43.73909" lon="6.75758">
        <ele>941.99304199219</ele>
        <time>2016-11-06T14:29:46.000Z</time>
      </trkpt>
      <trkpt lat="43.73909" lon="6.75756">
        <ele>941.71405029297</ele>
        <time>2016-11-06T14:29:48.000Z</time>
      </trkpt>
      <trkpt lat="43.7391" lon="6.75752">
        <ele>941.52392578125</ele>
        <time>2016-11-06T14:29:51.000Z</time>
      </trkpt>
      <trkpt lat="43.7391" lon="6.75749">
        <ele>941.35803222656</ele>
        <time>2016-11-06T14:29:53.000Z</time>
      </trkpt>
      <trkpt lat="43.7391" lon="6.75746">
        <ele>941.19091796875</ele>
        <time>2016-11-06T14:29:56.000Z</time>
      </trkpt>
      <trkpt lat="43.73911" lon="6.75744">
        <ele>941.1025390625</ele>
        <time>2016-11-06T14:29:58.000Z</time>
      </trkpt>
      <trkpt lat="43.73911" lon="6.75743">
        <ele>941.04412841797</ele>
        <time>2016-11-06T14:30:00.000Z</time>
      </trkpt>
      <trkpt lat="43.73911" lon="6.75739">
        <ele>941.01184082031</ele>
        <time>2016-11-06T14:30:03.000Z</time>
      </trkpt>
      <trkpt lat="43.7391" lon="6.75735">
        <ele>940.96856689453</ele>
        <time>2016-11-06T14:30:06.000Z</time>
      </trkpt>
      <trkpt lat="43.73909" lon="6.75731">
        <ele>940.89813232422</ele>
        <time>2016-11-06T14:30:09.000Z</time>
      </trkpt>
      <trkpt lat="43.73909" lon="6.75727">
        <ele>940.74743652344</ele>
        <time>2016-11-06T14:30:12.000Z</time>
      </trkpt>
      <trkpt lat="43.73909" lon="6.75723">
        <ele>940.63751220703</ele>
        <time>2016-11-06T14:30:15.000Z</time>
      </trkpt>
      <trkpt lat="43.7391" lon="6.7572">
        <ele>940.52966308594</ele>
        <time>2016-11-06T14:30:17.000Z</time>
      </trkpt>
      <trkpt lat="43.73911" lon="6.75717">
        <ele>940.50323486328</ele>
        <time>2016-11-06T14:30:19.000Z</time>
      </trkpt>
      <trkpt lat="43.73913" lon="6.75715">
        <ele>940.68701171875</ele>
        <time>2016-11-06T14:30:21.000Z</time>
      </trkpt>
      <trkpt lat="43.73915" lon="6.75712">
        <ele>941.05139160156</ele>
        <time>2016-11-06T14:30:24.000Z</time>
      </trkpt>
      <trkpt lat="43.73915" lon="6.75707">
        <ele>941.34002685547</ele>
        <time>2016-11-06T14:30:27.000Z</time>
      </trkpt>
      <trkpt lat="43.73915" lon="6.75703">
        <ele>941.60339355469</ele>
        <time>2016-11-06T14:30:29.000Z</time>
      </trkpt>
      <trkpt lat="43.73915" lon="6.757">
        <ele>941.86737060547</ele>
        <time>2016-11-06T14:30:31.000Z</time>
      </trkpt>
      <trkpt lat="43.73917" lon="6.75695">
        <ele>942.08331298828</ele>
        <time>2016-11-06T14:30:34.000Z</time>
      </trkpt>
      <trkpt lat="43.73919" lon="6.75691">
        <ele>942.29266357422</ele>
        <time>2016-11-06T14:30:37.000Z</time>
      </trkpt>
      <trkpt lat="43.73919" lon="6.75687">
        <ele>942.564453125</ele>
        <time>2016-11-06T14:30:39.000Z</time>
      </trkpt>
      <trkpt lat="43.7392" lon="6.75684">
        <ele>942.86737060547</ele>
        <time>2016-11-06T14:30:41.000Z</time>
      </trkpt>
      <trkpt lat="43.73921" lon="6.75679">
        <ele>943.23889160156</ele>
        <time>2016-11-06T14:30:44.000Z</time>
      </trkpt>
      <trkpt lat="43.73923" lon="6.75674">
        <ele>943.62420654297</ele>
        <time>2016-11-06T14:30:47.000Z</time>
      </trkpt>
      <trkpt lat="43.73924" lon="6.75671">
        <ele>943.98303222656</ele>
        <time>2016-11-06T14:30:49.000Z</time>
      </trkpt>
      <trkpt lat="43.73925" lon="6.75668">
        <ele>944.40576171875</ele>
        <time>2016-11-06T14:30:51.000Z</time>
      </trkpt>
      <trkpt lat="43.73926" lon="6.75665">
        <ele>944.81915283203</ele>
        <time>2016-11-06T14:30:53.000Z</time>
      </trkpt>
      <trkpt lat="43.73927" lon="6.75662">
        <ele>945.18420410156</ele>
        <time>2016-11-06T14:30:56.000Z</time>
      </trkpt>
      <trkpt lat="43.73928" lon="6.75661">
        <ele>945.54571533203</ele>
        <time>2016-11-06T14:30:59.000Z</time>
      </trkpt>
      <trkpt lat="43.73928" lon="6.75659">
        <ele>945.77117919922</ele>
        <time>2016-11-06T14:31:01.000Z</time>
      </trkpt>
      <trkpt lat="43.73927" lon="6.75656">
        <ele>945.8232421875</ele>
        <time>2016-11-06T14:31:03.000Z</time>
      </trkpt>
      <trkpt lat="43.73927" lon="6.75652">
        <ele>945.78405761719</ele>
        <time>2016-11-06T14:31:06.000Z</time>
      </trkpt>
      <trkpt lat="43.73928" lon="6.75649">
        <ele>945.72131347656</ele>
        <time>2016-11-06T14:31:08.000Z</time>
      </trkpt>
      <trkpt lat="43.7393" lon="6.75647">
        <ele>945.64782714844</ele>
        <time>2016-11-06T14:31:10.000Z</time>
      </trkpt>
      <trkpt lat="43.7393" lon="6.75644">
        <ele>945.59326171875</ele>
        <time>2016-11-06T14:31:12.000Z</time>
      </trkpt>
      <trkpt lat="43.73929" lon="6.75639">
        <ele>945.54815673828</ele>
        <time>2016-11-06T14:31:15.000Z</time>
      </trkpt>
      <trkpt lat="43.73931" lon="6.75634">
        <ele>945.68475341797</ele>
        <time>2016-11-06T14:31:18.000Z</time>
      </trkpt>
      <trkpt lat="43.73934" lon="6.75631">
        <ele>945.96350097656</ele>
        <time>2016-11-06T14:31:21.000Z</time>
      </trkpt>
      <trkpt lat="43.73935" lon="6.75626">
        <ele>946.15930175781</ele>
        <time>2016-11-06T14:31:24.000Z</time>
      </trkpt>
      <trkpt lat="43.73934" lon="6.75624">
        <ele>946.30139160156</ele>
        <time>2016-11-06T14:31:26.000Z</time>
      </trkpt>
      <trkpt lat="43.73933" lon="6.75619">
        <ele>946.40563964844</ele>
        <time>2016-11-06T14:31:29.000Z</time>
      </trkpt>
      <trkpt lat="43.73933" lon="6.75614">
        <ele>946.38623046875</ele>
        <time>2016-11-06T14:31:32.000Z</time>
      </trkpt>
      <trkpt lat="43.73935" lon="6.75609">
        <ele>946.22296142578</ele>
        <time>2016-11-06T14:31:35.000Z</time>
      </trkpt>
      <trkpt lat="43.73936" lon="6.75603">
        <ele>946.07971191406</ele>
        <time>2016-11-06T14:31:38.000Z</time>
      </trkpt>
      <trkpt lat="43.73937" lon="6.75598">
        <ele>946.02996826172</ele>
        <time>2016-11-06T14:31:41.000Z</time>
      </trkpt>
      <trkpt lat="43.73937" lon="6.75593">
        <ele>946.03955078125</ele>
        <time>2016-11-06T14:31:44.000Z</time>
      </trkpt>
      <trkpt lat="43.73938" lon="6.7559">
        <ele>946.09783935547</ele>
        <time>2016-11-06T14:31:46.000Z</time>
      </trkpt>
      <trkpt lat="43.73939" lon="6.75587">
        <ele>946.1806640625</ele>
        <time>2016-11-06T14:31:48.000Z</time>
      </trkpt>
      <trkpt lat="43.7394" lon="6.75584">
        <ele>946.29187011719</ele>
        <time>2016-11-06T14:31:50.000Z</time>
      </trkpt>
      <trkpt lat="43.73941" lon="6.75581">
        <ele>946.3955078125</ele>
        <time>2016-11-06T14:31:53.000Z</time>
      </trkpt>
      <trkpt lat="43.73941" lon="6.75578">
        <ele>946.505859375</ele>
        <time>2016-11-06T14:31:55.000Z</time>
      </trkpt>
      <trkpt lat="43.73941" lon="6.75573">
        <ele>946.50634765625</ele>
        <time>2016-11-06T14:31:58.000Z</time>
      </trkpt>
      <trkpt lat="43.73942" lon="6.75569">
        <ele>946.43615722656</ele>
        <time>2016-11-06T14:32:01.000Z</time>
      </trkpt>
      <trkpt lat="43.73943" lon="6.75568">
        <ele>946.34002685547</ele>
        <time>2016-11-06T14:32:03.000Z</time>
      </trkpt>
      <trkpt lat="43.73943" lon="6.75567">
        <ele>946.25421142578</ele>
        <time>2016-11-06T14:32:07.000Z</time>
      </trkpt>
      <trkpt lat="43.73944" lon="6.75564">
        <ele>946.27362060547</ele>
        <time>2016-11-06T14:32:10.000Z</time>
      </trkpt>
      <trkpt lat="43.73946" lon="6.75561">
        <ele>946.45178222656</ele>
        <time>2016-11-06T14:32:13.000Z</time>
      </trkpt>
      <trkpt lat="43.73948" lon="6.75559">
        <ele>946.71112060547</ele>
        <time>2016-11-06T14:32:15.000Z</time>
      </trkpt>
      <trkpt lat="43.7395" lon="6.75555">
        <ele>947.00598144531</ele>
        <time>2016-11-06T14:32:18.000Z</time>
      </trkpt>
      <trkpt lat="43.73952" lon="6.75552">
        <ele>947.37829589844</ele>
        <time>2016-11-06T14:32:20.000Z</time>
      </trkpt>
      <trkpt lat="43.73952" lon="6.75549">
        <ele>947.68878173828</ele>
        <time>2016-11-06T14:32:23.000Z</time>
      </trkpt>
      <trkpt lat="43.73953" lon="6.75547">
        <ele>947.95056152344</ele>
        <time>2016-11-06T14:32:25.000Z</time>
      </trkpt>
      <trkpt lat="43.73954" lon="6.75546">
        <ele>948.15270996094</ele>
        <time>2016-11-06T14:32:27.000Z</time>
      </trkpt>
      <trkpt lat="43.73957" lon="6.75544">
        <ele>948.49963378906</ele>
        <time>2016-11-06T14:32:30.000Z</time>
      </trkpt>
      <trkpt lat="43.73958" lon="6.75542">
        <ele>948.76318359375</ele>
        <time>2016-11-06T14:32:32.000Z</time>
      </trkpt>
      <trkpt lat="43.73959" lon="6.7554">
        <ele>949.02648925781</ele>
        <time>2016-11-06T14:32:34.000Z</time>
      </trkpt>
      <trkpt lat="43.73959" lon="6.75538">
        <ele>949.2275390625</ele>
        <time>2016-11-06T14:32:36.000Z</time>
      </trkpt>
      <trkpt lat="43.73958" lon="6.75536">
        <ele>949.31134033203</ele>
        <time>2016-11-06T14:32:39.000Z</time>
      </trkpt>
      <trkpt lat="43.73959" lon="6.75531">
        <ele>949.1640625</ele>
        <time>2016-11-06T14:32:42.000Z</time>
      </trkpt>
      <trkpt lat="43.73962" lon="6.75527">
        <ele>949.09393310547</ele>
        <time>2016-11-06T14:32:45.000Z</time>
      </trkpt>
      <trkpt lat="43.73964" lon="6.75523">
        <ele>949.1328125</ele>
        <time>2016-11-06T14:32:48.000Z</time>
      </trkpt>
      <trkpt lat="43.73966" lon="6.75519">
        <ele>949.22918701172</ele>
        <time>2016-11-06T14:32:51.000Z</time>
      </trkpt>
      <trkpt lat="43.73967" lon="6.75517">
        <ele>949.46124267578</ele>
        <time>2016-11-06T14:32:53.000Z</time>
      </trkpt>
      <trkpt lat="43.73967" lon="6.75513">
        <ele>949.63342285156</ele>
        <time>2016-11-06T14:32:56.000Z</time>
      </trkpt>
      <trkpt lat="43.73968" lon="6.7551">
        <ele>949.72058105469</ele>
        <time>2016-11-06T14:32:59.000Z</time>
      </trkpt>
      <trkpt lat="43.73971" lon="6.75507">
        <ele>949.85870361328</ele>
        <time>2016-11-06T14:33:02.000Z</time>
      </trkpt>
      <trkpt lat="43.73973" lon="6.75505">
        <ele>950.02014160156</ele>
        <time>2016-11-06T14:33:05.000Z</time>
      </trkpt>
      <trkpt lat="43.73973" lon="6.75502">
        <ele>950.11389160156</ele>
        <time>2016-11-06T14:33:08.000Z</time>
      </trkpt>
      <trkpt lat="43.73975" lon="6.755">
        <ele>950.35119628906</ele>
        <time>2016-11-06T14:33:11.000Z</time>
      </trkpt>
      <trkpt lat="43.73977" lon="6.75498">
        <ele>950.62158203125</ele>
        <time>2016-11-06T14:33:13.000Z</time>
      </trkpt>
      <trkpt lat="43.73978" lon="6.75494">
        <ele>950.62725830078</ele>
        <time>2016-11-06T14:33:16.000Z</time>
      </trkpt>
      <trkpt lat="43.73977" lon="6.75492">
        <ele>950.4384765625</ele>
        <time>2016-11-06T14:33:18.000Z</time>
      </trkpt>
      <trkpt lat="43.73975" lon="6.75488">
        <ele>949.95684814453</ele>
        <time>2016-11-06T14:33:20.000Z</time>
      </trkpt>
      <trkpt lat="43.73974" lon="6.75482">
        <ele>949.00518798828</ele>
        <time>2016-11-06T14:33:23.000Z</time>
      </trkpt>
      <trkpt lat="43.73975" lon="6.75478">
        <ele>947.87048339844</ele>
        <time>2016-11-06T14:33:26.000Z</time>
      </trkpt>
      <trkpt lat="43.73977" lon="6.75473">
        <ele>946.775390625</ele>
        <time>2016-11-06T14:33:29.000Z</time>
      </trkpt>
      <trkpt lat="43.7398" lon="6.7547">
        <ele>945.78448486328</ele>
        <time>2016-11-06T14:33:32.000Z</time>
      </trkpt>
      <trkpt lat="43.73981" lon="6.75468">
        <ele>945.10192871094</ele>
        <time>2016-11-06T14:33:34.000Z</time>
      </trkpt>
      <trkpt lat="43.73983" lon="6.75464">
        <ele>944.74676513672</ele>
        <time>2016-11-06T14:33:37.000Z</time>
      </trkpt>
      <trkpt lat="43.73985" lon="6.7546">
        <ele>944.39111328125</ele>
        <time>2016-11-06T14:33:39.000Z</time>
      </trkpt>
      <trkpt lat="43.73985" lon="6.75457">
        <ele>943.96179199219</ele>
        <time>2016-11-06T14:33:41.000Z</time>
      </trkpt>
      <trkpt lat="43.73986" lon="6.75454">
        <ele>943.52111816406</ele>
        <time>2016-11-06T14:33:44.000Z</time>
      </trkpt>
      <trkpt lat="43.73988" lon="6.75453">
        <ele>943.14581298828</ele>
        <time>2016-11-06T14:33:46.000Z</time>
      </trkpt>
      <trkpt lat="43.73992" lon="6.75449">
        <ele>942.85986328125</ele>
        <time>2016-11-06T14:33:49.000Z</time>
      </trkpt>
      <trkpt lat="43.73994" lon="6.75447">
        <ele>942.71838378906</ele>
        <time>2016-11-06T14:33:51.000Z</time>
      </trkpt>
      <trkpt lat="43.73993" lon="6.75442">
        <ele>942.35986328125</ele>
        <time>2016-11-06T14:33:54.000Z</time>
      </trkpt>
      <trkpt lat="43.73992" lon="6.75434">
        <ele>941.60382080078</ele>
        <time>2016-11-06T14:33:57.000Z</time>
      </trkpt>
      <trkpt lat="43.73991" lon="6.75428">
        <ele>940.44934082031</ele>
        <time>2016-11-06T14:34:00.000Z</time>
      </trkpt>
      <trkpt lat="43.73992" lon="6.75425">
        <ele>939.13934326172</ele>
        <time>2016-11-06T14:34:02.000Z</time>
      </trkpt>
      <trkpt lat="43.73992" lon="6.75421">
        <ele>937.63244628906</ele>
        <time>2016-11-06T14:34:05.000Z</time>
      </trkpt>
      <trkpt lat="43.73991" lon="6.7542">
        <ele>936.34826660156</ele>
        <time>2016-11-06T14:34:11.000Z</time>
      </trkpt>
      <trkpt lat="43.73989" lon="6.75416">
        <ele>935.26348876953</ele>
        <time>2016-11-06T14:34:17.000Z</time>
      </trkpt>
      <trkpt lat="43.73988" lon="6.75414">
        <ele>934.38641357422</ele>
        <time>2016-11-06T14:34:19.000Z</time>
      </trkpt>
      <trkpt lat="43.73987" lon="6.75411">
        <ele>933.54278564453</ele>
        <time>2016-11-06T14:34:29.000Z</time>
      </trkpt>
      <trkpt lat="43.73988" lon="6.75409">
        <ele>932.88311767578</ele>
        <time>2016-11-06T14:34:32.000Z</time>
      </trkpt>
      <trkpt lat="43.73986" lon="6.75409">
        <ele>932.240234375</ele>
        <time>2016-11-06T14:34:35.000Z</time>
      </trkpt>
      <trkpt lat="43.73985" lon="6.75409">
        <ele>931.83532714844</ele>
        <time>2016-11-06T14:34:37.000Z</time>
      </trkpt>
      <trkpt lat="43.73986" lon="6.75409">
        <ele>931.63293457031</ele>
        <time>2016-11-06T14:34:41.000Z</time>
      </trkpt>
      <trkpt lat="43.73987" lon="6.75413">
        <ele>931.70703125</ele>
        <time>2016-11-06T14:34:44.000Z</time>
      </trkpt>
      <trkpt lat="43.73985" lon="6.75416">
        <ele>931.78088378906</ele>
        <time>2016-11-06T14:34:46.000Z</time>
      </trkpt>
      <trkpt lat="43.73985" lon="6.75418">
        <ele>932.05224609375</ele>
        <time>2016-11-06T14:34:48.000Z</time>
      </trkpt>
      <trkpt lat="43.73987" lon="6.75419">
        <ele>932.49645996094</ele>
        <time>2016-11-06T14:34:51.000Z</time>
      </trkpt>
      <trkpt lat="43.73989" lon="6.75421">
        <ele>933.05731201172</ele>
        <time>2016-11-06T14:34:53.000Z</time>
      </trkpt>
      <trkpt lat="43.73992" lon="6.75422">
        <ele>933.65625</ele>
        <time>2016-11-06T14:34:56.000Z</time>
      </trkpt>
      <trkpt lat="43.73994" lon="6.75423">
        <ele>934.43212890625</ele>
        <time>2016-11-06T14:34:59.000Z</time>
      </trkpt>
      <trkpt lat="43.73995" lon="6.75424">
        <ele>935.23620605469</ele>
        <time>2016-11-06T14:35:01.000Z</time>
      </trkpt>
      <trkpt lat="43.73994" lon="6.75424">
        <ele>935.81866455078</ele>
        <time>2016-11-06T14:35:04.000Z</time>
      </trkpt>
      <trkpt lat="43.73993" lon="6.75424">
        <ele>936.18395996094</ele>
        <time>2016-11-06T14:35:08.000Z</time>
      </trkpt>
      <trkpt lat="43.73996" lon="6.75423">
        <ele>936.44354248047</ele>
        <time>2016-11-06T14:35:11.000Z</time>
      </trkpt>
      <trkpt lat="43.73999" lon="6.75423">
        <ele>936.67858886719</ele>
        <time>2016-11-06T14:35:13.000Z</time>
      </trkpt>
      <trkpt lat="43.74" lon="6.75425">
        <ele>936.98699951172</ele>
        <time>2016-11-06T14:35:16.000Z</time>
      </trkpt>
      <trkpt lat="43.74" lon="6.75425">
        <ele>937.38122558594</ele>
        <time>2016-11-06T14:35:20.000Z</time>
      </trkpt>
      <trkpt lat="43.74002" lon="6.75426">
        <ele>938.00354003906</ele>
        <time>2016-11-06T14:35:22.000Z</time>
      </trkpt>
      <trkpt lat="43.74005" lon="6.75427">
        <ele>938.80725097656</ele>
        <time>2016-11-06T14:35:24.000Z</time>
      </trkpt>
      <trkpt lat="43.74007" lon="6.75428">
        <ele>939.6162109375</ele>
        <time>2016-11-06T14:35:27.000Z</time>
      </trkpt>
      <trkpt lat="43.74007" lon="6.75428">
        <ele>940.3232421875</ele>
        <time>2016-11-06T14:35:30.000Z</time>
      </trkpt>
      <trkpt lat="43.74011" lon="6.75431">
        <ele>941.40979003906</ele>
        <time>2016-11-06T14:35:33.000Z</time>
      </trkpt>
      <trkpt lat="43.74014" lon="6.75433">
        <ele>942.5732421875</ele>
        <time>2016-11-06T14:35:35.000Z</time>
      </trkpt>
      <trkpt lat="43.74015" lon="6.75433">
        <ele>943.56188964844</ele>
        <time>2016-11-06T14:35:38.000Z</time>
      </trkpt>
      <trkpt lat="43.74017" lon="6.75435">
        <ele>944.60510253906</ele>
        <time>2016-11-06T14:35:40.000Z</time>
      </trkpt>
      <trkpt lat="43.7402" lon="6.75438">
        <ele>945.95251464844</ele>
        <time>2016-11-06T14:35:43.000Z</time>
      </trkpt>
      <trkpt lat="43.74022" lon="6.75439">
        <ele>947.10546875</ele>
        <time>2016-11-06T14:35:45.000Z</time>
      </trkpt>
      <trkpt lat="43.74027" lon="6.7544">
        <ele>948.4013671875</ele>
        <time>2016-11-06T14:35:48.000Z</time>
      </trkpt>
      <trkpt lat="43.74036" lon="6.75439">
        <ele>950.17272949219</ele>
        <time>2016-11-06T14:35:51.000Z</time>
      </trkpt>
      <trkpt lat="43.74038" lon="6.75438">
        <ele>951.83203125</ele>
        <time>2016-11-06T14:35:53.000Z</time>
      </trkpt>
      <trkpt lat="43.74039" lon="6.75436">
        <ele>953.10858154297</ele>
        <time>2016-11-06T14:35:55.000Z</time>
      </trkpt>
      <trkpt lat="43.74043" lon="6.75434">
        <ele>954.28063964844</ele>
        <time>2016-11-06T14:35:58.000Z</time>
      </trkpt>
      <trkpt lat="43.74044" lon="6.75432">
        <ele>955.05651855469</ele>
        <time>2016-11-06T14:36:00.000Z</time>
      </trkpt>
      <trkpt lat="43.74046" lon="6.75431">
        <ele>955.27716064453</ele>
        <time>2016-11-06T14:36:03.000Z</time>
      </trkpt>
      <trkpt lat="43.74047" lon="6.75426">
        <ele>955.23358154297</ele>
        <time>2016-11-06T14:36:06.000Z</time>
      </trkpt>
      <trkpt lat="43.74047" lon="6.75424">
        <ele>955.16357421875</ele>
        <time>2016-11-06T14:36:09.000Z</time>
      </trkpt>
      <trkpt lat="43.74048" lon="6.75423">
        <ele>954.95446777344</ele>
        <time>2016-11-06T14:36:11.000Z</time>
      </trkpt>
      <trkpt lat="43.74049" lon="6.75423">
        <ele>954.84393310547</ele>
        <time>2016-11-06T14:36:13.000Z</time>
      </trkpt>
      <trkpt lat="43.74052" lon="6.75424">
        <ele>954.91064453125</ele>
        <time>2016-11-06T14:36:16.000Z</time>
      </trkpt>
      <trkpt lat="43.74054" lon="6.75425">
        <ele>955.36877441406</ele>
        <time>2016-11-06T14:36:18.000Z</time>
      </trkpt>
      <trkpt lat="43.74057" lon="6.75425">
        <ele>956.07305908203</ele>
        <time>2016-11-06T14:36:21.000Z</time>
      </trkpt>
      <trkpt lat="43.74059" lon="6.75424">
        <ele>956.85803222656</ele>
        <time>2016-11-06T14:36:23.000Z</time>
      </trkpt>
      <trkpt lat="43.7406" lon="6.75422">
        <ele>957.49377441406</ele>
        <time>2016-11-06T14:36:25.000Z</time>
      </trkpt>
      <trkpt lat="43.74061" lon="6.7542">
        <ele>957.90008544922</ele>
        <time>2016-11-06T14:36:27.000Z</time>
      </trkpt>
      <trkpt lat="43.74062" lon="6.75418">
        <ele>958.0791015625</ele>
        <time>2016-11-06T14:36:30.000Z</time>
      </trkpt>
      <trkpt lat="43.74063" lon="6.75417">
        <ele>958.04528808594</ele>
        <time>2016-11-06T14:36:32.000Z</time>
      </trkpt>
      <trkpt lat="43.74063" lon="6.75415">
        <ele>957.96716308594</ele>
        <time>2016-11-06T14:36:35.000Z</time>
      </trkpt>
      <trkpt lat="43.74062" lon="6.75413">
        <ele>957.84344482422</ele>
        <time>2016-11-06T14:36:38.000Z</time>
      </trkpt>
      <trkpt lat="43.74063" lon="6.75411">
        <ele>957.74395751953</ele>
        <time>2016-11-06T14:36:40.000Z</time>
      </trkpt>
      <trkpt lat="43.74062" lon="6.75409">
        <ele>957.57482910156</ele>
        <time>2016-11-06T14:36:42.000Z</time>
      </trkpt>
      <trkpt lat="43.74059" lon="6.75407">
        <ele>957.13543701172</ele>
        <time>2016-11-06T14:36:45.000Z</time>
      </trkpt>
      <trkpt lat="43.74057" lon="6.75406">
        <ele>956.55419921875</ele>
        <time>2016-11-06T14:36:47.000Z</time>
      </trkpt>
      <trkpt lat="43.74058" lon="6.75404">
        <ele>956.08483886719</ele>
        <time>2016-11-06T14:36:50.000Z</time>
      </trkpt>
      <trkpt lat="43.74059" lon="6.75401">
        <ele>955.60314941406</ele>
        <time>2016-11-06T14:36:53.000Z</time>
      </trkpt>
      <trkpt lat="43.74059" lon="6.75399">
        <ele>955.173828125</ele>
        <time>2016-11-06T14:36:55.000Z</time>
      </trkpt>
      <trkpt lat="43.74059" lon="6.75394">
        <ele>954.98962402344</ele>
        <time>2016-11-06T14:36:58.000Z</time>
      </trkpt>
      <trkpt lat="43.74061" lon="6.7539">
        <ele>955.01251220703</ele>
        <time>2016-11-06T14:37:01.000Z</time>
      </trkpt>
      <trkpt lat="43.74062" lon="6.75387">
        <ele>955.09197998047</ele>
        <time>2016-11-06T14:37:03.000Z</time>
      </trkpt>
      <trkpt lat="43.74064" lon="6.75387">
        <ele>955.29998779297</ele>
        <time>2016-11-06T14:37:05.000Z</time>
      </trkpt>
      <trkpt lat="43.74065" lon="6.75388">
        <ele>955.62756347656</ele>
        <time>2016-11-06T14:37:10.000Z</time>
      </trkpt>
      <trkpt lat="43.74066" lon="6.75387">
        <ele>956.05645751953</ele>
        <time>2016-11-06T14:37:13.000Z</time>
      </trkpt>
      <trkpt lat="43.74067" lon="6.75385">
        <ele>956.42706298828</ele>
        <time>2016-11-06T14:37:15.000Z</time>
      </trkpt>
      <trkpt lat="43.74066" lon="6.75383">
        <ele>956.6513671875</ele>
        <time>2016-11-06T14:37:17.000Z</time>
      </trkpt>
      <trkpt lat="43.74065" lon="6.75379">
        <ele>956.64129638672</ele>
        <time>2016-11-06T14:37:20.000Z</time>
      </trkpt>
      <trkpt lat="43.74068" lon="6.75376">
        <ele>956.69989013672</ele>
        <time>2016-11-06T14:37:23.000Z</time>
      </trkpt>
      <trkpt lat="43.74072" lon="6.75373">
        <ele>957.00158691406</ele>
        <time>2016-11-06T14:37:26.000Z</time>
      </trkpt>
      <trkpt lat="43.74074" lon="6.75372">
        <ele>957.44812011719</ele>
        <time>2016-11-06T14:37:29.000Z</time>
      </trkpt>
      <trkpt lat="43.74075" lon="6.7537">
        <ele>958.02941894531</ele>
        <time>2016-11-06T14:37:32.000Z</time>
      </trkpt>
      <trkpt lat="43.74075" lon="6.75369">
        <ele>958.70977783203</ele>
        <time>2016-11-06T14:37:35.000Z</time>
      </trkpt>
      <trkpt lat="43.74075" lon="6.75367">
        <ele>959.21838378906</ele>
        <time>2016-11-06T14:37:37.000Z</time>
      </trkpt>
      <trkpt lat="43.74076" lon="6.75365">
        <ele>959.38610839844</ele>
        <time>2016-11-06T14:37:39.000Z</time>
      </trkpt>
      <trkpt lat="43.74076" lon="6.75364">
        <ele>959.38635253906</ele>
        <time>2016-11-06T14:37:41.000Z</time>
      </trkpt>
      <trkpt lat="43.7408" lon="6.75362">
        <ele>959.63659667969</ele>
        <time>2016-11-06T14:37:44.000Z</time>
      </trkpt>
      <trkpt lat="43.74083" lon="6.7536">
        <ele>960.19384765625</ele>
        <time>2016-11-06T14:37:47.000Z</time>
      </trkpt>
      <trkpt lat="43.74083" lon="6.75358">
        <ele>960.716796875</ele>
        <time>2016-11-06T14:37:51.000Z</time>
      </trkpt>
      <trkpt lat="43.74082" lon="6.75355">
        <ele>961.15264892578</ele>
        <time>2016-11-06T14:37:53.000Z</time>
      </trkpt>
      <trkpt lat="43.7408" lon="6.75349">
        <ele>961.40850830078</ele>
        <time>2016-11-06T14:37:56.000Z</time>
      </trkpt>
      <trkpt lat="43.74081" lon="6.75345">
        <ele>961.37548828125</ele>
        <time>2016-11-06T14:37:58.000Z</time>
      </trkpt>
      <trkpt lat="43.74082" lon="6.75343">
        <ele>961.09686279297</ele>
        <time>2016-11-06T14:38:00.000Z</time>
      </trkpt>
      <trkpt lat="43.74084" lon="6.7534">
        <ele>961.0576171875</ele>
        <time>2016-11-06T14:38:02.000Z</time>
      </trkpt>
      <trkpt lat="43.74087" lon="6.75336">
        <ele>961.44561767578</ele>
        <time>2016-11-06T14:38:05.000Z</time>
      </trkpt>
      <trkpt lat="43.74088" lon="6.75329">
        <ele>962.33020019531</ele>
        <time>2016-11-06T14:38:08.000Z</time>
      </trkpt>
      <trkpt lat="43.74089" lon="6.75327">
        <ele>963.42810058594</ele>
        <time>2016-11-06T14:38:10.000Z</time>
      </trkpt>
      <trkpt lat="43.74093" lon="6.75323">
        <ele>965.11950683594</ele>
        <time>2016-11-06T14:38:13.000Z</time>
      </trkpt>
      <trkpt lat="43.74096" lon="6.7532">
        <ele>967.1416015625</ele>
        <time>2016-11-06T14:38:15.000Z</time>
      </trkpt>
      <trkpt lat="43.74099" lon="6.75318">
        <ele>969.33728027344</ele>
        <time>2016-11-06T14:38:17.000Z</time>
      </trkpt>
      <trkpt lat="43.74102" lon="6.75316">
        <ele>971.65216064453</ele>
        <time>2016-11-06T14:38:20.000Z</time>
      </trkpt>
      <trkpt lat="43.74101" lon="6.75315">
        <ele>973.56750488281</ele>
        <time>2016-11-06T14:38:23.000Z</time>
      </trkpt>
      <trkpt lat="43.741" lon="6.75313">
        <ele>974.8515625</ele>
        <time>2016-11-06T14:38:26.000Z</time>
      </trkpt>
      <trkpt lat="43.74097" lon="6.75311">
        <ele>975.30334472656</ele>
        <time>2016-11-06T14:38:29.000Z</time>
      </trkpt>
      <trkpt lat="43.74095" lon="6.7531">
        <ele>974.99041748047</ele>
        <time>2016-11-06T14:38:31.000Z</time>
      </trkpt>
      <trkpt lat="43.74094" lon="6.75308">
        <ele>974.27947998047</ele>
        <time>2016-11-06T14:38:34.000Z</time>
      </trkpt>
      <trkpt lat="43.74094" lon="6.75305">
        <ele>973.76251220703</ele>
        <time>2016-11-06T14:38:37.000Z</time>
      </trkpt>
      <trkpt lat="43.74092" lon="6.75301">
        <ele>973.25427246094</ele>
        <time>2016-11-06T14:38:40.000Z</time>
      </trkpt>
      <trkpt lat="43.74094" lon="6.75301">
        <ele>973.18731689453</ele>
        <time>2016-11-06T14:38:42.000Z</time>
      </trkpt>
      <trkpt lat="43.74096" lon="6.75302">
        <ele>973.69445800781</ele>
        <time>2016-11-06T14:38:45.000Z</time>
      </trkpt>
      <trkpt lat="43.74097" lon="6.75304">
        <ele>974.19177246094</ele>
        <time>2016-11-06T14:38:47.000Z</time>
      </trkpt>
      <trkpt lat="43.74096" lon="6.75307">
        <ele>974.35723876953</ele>
        <time>2016-11-06T14:38:49.000Z</time>
      </trkpt>
      <trkpt lat="43.74095" lon="6.75309">
        <ele>974.33477783203</ele>
        <time>2016-11-06T14:38:52.000Z</time>
      </trkpt>
      <trkpt lat="43.74096" lon="6.75309">
        <ele>974.39288330078</ele>
        <time>2016-11-06T14:38:54.000Z</time>
      </trkpt>
      <trkpt lat="43.741" lon="6.75306">
        <ele>974.72100830078</ele>
        <time>2016-11-06T14:38:57.000Z</time>
      </trkpt>
      <trkpt lat="43.74104" lon="6.75303">
        <ele>975.58575439453</ele>
        <time>2016-11-06T14:38:59.000Z</time>
      </trkpt>
      <trkpt lat="43.74109" lon="6.75289">
        <ele>977.73406982422</ele>
        <time>2016-11-06T14:39:02.000Z</time>
      </trkpt>
      <trkpt lat="43.7411" lon="6.75287">
        <ele>980.36737060547</ele>
        <time>2016-11-06T14:39:04.000Z</time>
      </trkpt>
      <trkpt lat="43.7411" lon="6.75291">
        <ele>982.67431640625</ele>
        <time>2016-11-06T14:39:07.000Z</time>
      </trkpt>
      <trkpt lat="43.74109" lon="6.75295">
        <ele>984.11688232422</ele>
        <time>2016-11-06T14:39:10.000Z</time>
      </trkpt>
      <trkpt lat="43.74109" lon="6.75297">
        <ele>984.90313720703</ele>
        <time>2016-11-06T14:39:12.000Z</time>
      </trkpt>
      <trkpt lat="43.74107" lon="6.75296">
        <ele>984.54901123047</ele>
        <time>2016-11-06T14:39:15.000Z</time>
      </trkpt>
      <trkpt lat="43.74106" lon="6.75295">
        <ele>983.78015136719</ele>
        <time>2016-11-06T14:39:17.000Z</time>
      </trkpt>
      <trkpt lat="43.74102" lon="6.75293">
        <ele>982.6630859375</ele>
        <time>2016-11-06T14:39:19.000Z</time>
      </trkpt>
      <trkpt lat="43.74099" lon="6.75293">
        <ele>981.61633300781</ele>
        <time>2016-11-06T14:39:21.000Z</time>
      </trkpt>
      <trkpt lat="43.74099" lon="6.75294">
        <ele>980.552734375</ele>
        <time>2016-11-06T14:39:24.000Z</time>
      </trkpt>
      <trkpt lat="43.74097" lon="6.75289">
        <ele>979.59259033203</ele>
        <time>2016-11-06T14:39:27.000Z</time>
      </trkpt>
      <trkpt lat="43.74094" lon="6.75284">
        <ele>978.60876464844</ele>
        <time>2016-11-06T14:39:30.000Z</time>
      </trkpt>
      <trkpt lat="43.74093" lon="6.75281">
        <ele>978.17694091797</ele>
        <time>2016-11-06T14:39:32.000Z</time>
      </trkpt>
      <trkpt lat="43.74092" lon="6.75274">
        <ele>978.12646484375</ele>
        <time>2016-11-06T14:39:35.000Z</time>
      </trkpt>
      <trkpt lat="43.74092" lon="6.75273">
        <ele>978.25207519531</ele>
        <time>2016-11-06T14:39:37.000Z</time>
      </trkpt>
      <trkpt lat="43.74093" lon="6.75276">
        <ele>978.34753417969</ele>
        <time>2016-11-06T14:39:39.000Z</time>
      </trkpt>
      <trkpt lat="43.74094" lon="6.75279">
        <ele>978.56591796875</ele>
        <time>2016-11-06T14:39:42.000Z</time>
      </trkpt>
      <trkpt lat="43.74096" lon="6.75282">
        <ele>978.80096435547</ele>
        <time>2016-11-06T14:39:44.000Z</time>
      </trkpt>
      <trkpt lat="43.74098" lon="6.75284">
        <ele>979.05010986328</ele>
        <time>2016-11-06T14:39:47.000Z</time>
      </trkpt>
      <trkpt lat="43.74096" lon="6.75284">
        <ele>978.92626953125</ele>
        <time>2016-11-06T14:39:50.000Z</time>
      </trkpt>
      <trkpt lat="43.74089" lon="6.75281">
        <ele>978.23858642578</ele>
        <time>2016-11-06T14:39:53.000Z</time>
      </trkpt>
      <trkpt lat="43.74086" lon="6.75278">
        <ele>977.46728515625</ele>
        <time>2016-11-06T14:39:55.000Z</time>
      </trkpt>
      <trkpt lat="43.74082" lon="6.75272">
        <ele>976.35021972656</ele>
        <time>2016-11-06T14:39:58.000Z</time>
      </trkpt>
      <trkpt lat="43.74075" lon="6.75267">
        <ele>974.75311279297</ele>
        <time>2016-11-06T14:40:01.000Z</time>
      </trkpt>
      <trkpt lat="43.74068" lon="6.75262">
        <ele>973.22003173828</ele>
        <time>2016-11-06T14:40:04.000Z</time>
      </trkpt>
      <trkpt lat="43.74067" lon="6.7526">
        <ele>972.29266357422</ele>
        <time>2016-11-06T14:40:06.000Z</time>
      </trkpt>
      <trkpt lat="43.74066" lon="6.75258">
        <ele>971.443359375</ele>
        <time>2016-11-06T14:40:09.000Z</time>
      </trkpt>
      <trkpt lat="43.74065" lon="6.75256">
        <ele>970.90100097656</ele>
        <time>2016-11-06T14:40:11.000Z</time>
      </trkpt>
      <trkpt lat="43.74067" lon="6.75256">
        <ele>970.74792480469</ele>
        <time>2016-11-06T14:40:14.000Z</time>
      </trkpt>
      <trkpt lat="43.74068" lon="6.75258">
        <ele>970.88134765625</ele>
        <time>2016-11-06T14:40:16.000Z</time>
      </trkpt>
      <trkpt lat="43.74069" lon="6.75258">
        <ele>971.0927734375</ele>
        <time>2016-11-06T14:40:20.000Z</time>
      </trkpt>
      <trkpt lat="43.74071" lon="6.75257">
        <ele>971.49609375</ele>
        <time>2016-11-06T14:40:23.000Z</time>
      </trkpt>
      <trkpt lat="43.74072" lon="6.75257">
        <ele>971.91973876953</ele>
        <time>2016-11-06T14:40:25.000Z</time>
      </trkpt>
      <trkpt lat="43.74073" lon="6.75259">
        <ele>972.26055908203</ele>
        <time>2016-11-06T14:40:27.000Z</time>
      </trkpt>
      <trkpt lat="43.74076" lon="6.75262">
        <ele>972.681640625</ele>
        <time>2016-11-06T14:40:30.000Z</time>
      </trkpt>
      <trkpt lat="43.7408" lon="6.75265">
        <ele>973.29968261719</ele>
        <time>2016-11-06T14:40:32.000Z</time>
      </trkpt>
      <trkpt lat="43.74084" lon="6.75265">
        <ele>974.04864501953</ele>
        <time>2016-11-06T14:40:34.000Z</time>
      </trkpt>
      <trkpt lat="43.74088" lon="6.75267">
        <ele>975.01318359375</ele>
        <time>2016-11-06T14:40:36.000Z</time>
      </trkpt>
      <trkpt lat="43.7409" lon="6.75273">
        <ele>975.9521484375</ele>
        <time>2016-11-06T14:40:39.000Z</time>
      </trkpt>
      <trkpt lat="43.7409" lon="6.75279">
        <ele>976.51940917969</ele>
        <time>2016-11-06T14:40:42.000Z</time>
      </trkpt>
      <trkpt lat="43.74094" lon="6.7529">
        <ele>976.87585449219</ele>
        <time>2016-11-06T14:40:46.000Z</time>
      </trkpt>
      <trkpt lat="43.74107" lon="6.75295">
        <ele>978.16003417969</ele>
        <time>2016-11-06T14:40:51.000Z</time>
      </trkpt>
      <trkpt lat="43.74103" lon="6.7529">
        <ele>978.88513183594</ele>
        <time>2016-11-06T14:40:54.000Z</time>
      </trkpt>
      <trkpt lat="43.74103" lon="6.7529">
        <ele>978.88513183594</ele>
        <time>2016-11-06T14:41:14.000Z</time>
      </trkpt>
      <trkpt lat="43.74097" lon="6.75285">
        <ele>979.14538574219</ele>
        <time>2016-11-06T14:41:37.000Z</time>
      </trkpt>
      <trkpt lat="43.74081" lon="6.7527">
        <ele>978.62371826172</ele>
        <time>2016-11-06T14:41:40.000Z</time>
      </trkpt>
      <trkpt lat="43.74083" lon="6.75272">
        <ele>978.11767578125</ele>
        <time>2016-11-06T14:41:42.000Z</time>
      </trkpt>
      <trkpt lat="43.74088" lon="6.75277">
        <ele>976.69287109375</ele>
        <time>2016-11-06T14:41:45.000Z</time>
      </trkpt>
      <trkpt lat="43.74084" lon="6.75279">
        <ele>975.09216308594</ele>
        <time>2016-11-06T14:41:47.000Z</time>
      </trkpt>
      <trkpt lat="43.7408" lon="6.7528">
        <ele>973.58477783203</ele>
        <time>2016-11-06T14:41:50.000Z</time>
      </trkpt>
      <trkpt lat="43.74082" lon="6.7528">
        <ele>973.20764160156</ele>
        <time>2016-11-06T14:41:53.000Z</time>
      </trkpt>
      <trkpt lat="43.74086" lon="6.75278">
        <ele>973.35729980469</ele>
        <time>2016-11-06T14:41:56.000Z</time>
      </trkpt>
      <trkpt lat="43.74091" lon="6.75278">
        <ele>973.60870361328</ele>
        <time>2016-11-06T14:41:58.000Z</time>
      </trkpt>
      <trkpt lat="43.74092" lon="6.75276">
        <ele>974.55682373047</ele>
        <time>2016-11-06T14:42:00.000Z</time>
      </trkpt>
      <trkpt lat="43.74092" lon="6.75274">
        <ele>975.93975830078</ele>
        <time>2016-11-06T14:42:02.000Z</time>
      </trkpt>
      <trkpt lat="43.7409" lon="6.75273">
        <ele>977.13311767578</ele>
        <time>2016-11-06T14:42:05.000Z</time>
      </trkpt>
      <trkpt lat="43.74094" lon="6.75282">
        <ele>977.73596191406</ele>
        <time>2016-11-06T14:42:08.000Z</time>
      </trkpt>
      <trkpt lat="43.741" lon="6.75289">
        <ele>978.41485595703</ele>
        <time>2016-11-06T14:42:10.000Z</time>
      </trkpt>
      <trkpt lat="43.74101" lon="6.75295">
        <ele>978.70812988281</ele>
        <time>2016-11-06T14:42:13.000Z</time>
      </trkpt>
      <trkpt lat="43.74096" lon="6.75304">
        <ele>978.04211425781</ele>
        <time>2016-11-06T14:42:16.000Z</time>
      </trkpt>
      <trkpt lat="43.74093" lon="6.75307">
        <ele>977.00183105469</ele>
        <time>2016-11-06T14:42:19.000Z</time>
      </trkpt>
      <trkpt lat="43.74091" lon="6.75308">
        <ele>975.67395019531</ele>
        <time>2016-11-06T14:42:21.000Z</time>
      </trkpt>
      <trkpt lat="43.74091" lon="6.7531">
        <ele>973.70373535156</ele>
        <time>2016-11-06T14:42:24.000Z</time>
      </trkpt>
      <trkpt lat="43.74092" lon="6.75311">
        <ele>972.01904296875</ele>
        <time>2016-11-06T14:42:26.000Z</time>
      </trkpt>
      <trkpt lat="43.74095" lon="6.75312">
        <ele>971.53857421875</ele>
        <time>2016-11-06T14:42:29.000Z</time>
      </trkpt>
      <trkpt lat="43.74096" lon="6.75313">
        <ele>971.56896972656</ele>
        <time>2016-11-06T14:42:31.000Z</time>
      </trkpt>
      <trkpt lat="43.74095" lon="6.75316">
        <ele>971.76550292969</ele>
        <time>2016-11-06T14:42:33.000Z</time>
      </trkpt>
      <trkpt lat="43.74095" lon="6.75319">
        <ele>971.96356201172</ele>
        <time>2016-11-06T14:42:36.000Z</time>
      </trkpt>
      <trkpt lat="43.74096" lon="6.75323">
        <ele>971.92413330078</ele>
        <time>2016-11-06T14:42:39.000Z</time>
      </trkpt>
      <trkpt lat="43.74095" lon="6.75325">
        <ele>971.46026611328</ele>
        <time>2016-11-06T14:42:41.000Z</time>
      </trkpt>
      <trkpt lat="43.74094" lon="6.75329">
        <ele>970.64434814453</ele>
        <time>2016-11-06T14:42:44.000Z</time>
      </trkpt>
      <trkpt lat="43.74093" lon="6.75331">
        <ele>969.82861328125</ele>
        <time>2016-11-06T14:42:46.000Z</time>
      </trkpt>
      <trkpt lat="43.74092" lon="6.75332">
        <ele>968.94519042969</ele>
        <time>2016-11-06T14:42:49.000Z</time>
      </trkpt>
      <trkpt lat="43.7409" lon="6.75333">
        <ele>967.85516357422</ele>
        <time>2016-11-06T14:42:54.000Z</time>
      </trkpt>
      <trkpt lat="43.74089" lon="6.75333">
        <ele>966.73455810547</ele>
        <time>2016-11-06T14:42:59.000Z</time>
      </trkpt>
      <trkpt lat="43.74088" lon="6.75335">
        <ele>965.83612060547</ele>
        <time>2016-11-06T14:43:01.000Z</time>
      </trkpt>
      <trkpt lat="43.74088" lon="6.75337">
        <ele>965.04248046875</ele>
        <time>2016-11-06T14:43:03.000Z</time>
      </trkpt>
      <trkpt lat="43.74086" lon="6.7534">
        <ele>964.3251953125</ele>
        <time>2016-11-06T14:43:06.000Z</time>
      </trkpt>
      <trkpt lat="43.74086" lon="6.75342">
        <ele>963.8603515625</ele>
        <time>2016-11-06T14:43:08.000Z</time>
      </trkpt>
      <trkpt lat="43.74085" lon="6.75344">
        <ele>963.48175048828</ele>
        <time>2016-11-06T14:43:10.000Z</time>
      </trkpt>
      <trkpt lat="43.74084" lon="6.75349">
        <ele>963.08581542969</ele>
        <time>2016-11-06T14:43:13.000Z</time>
      </trkpt>
      <trkpt lat="43.74084" lon="6.75352">
        <ele>962.75958251953</ele>
        <time>2016-11-06T14:43:16.000Z</time>
      </trkpt>
      <trkpt lat="43.74083" lon="6.75355">
        <ele>962.49334716797</ele>
        <time>2016-11-06T14:43:18.000Z</time>
      </trkpt>
      <trkpt lat="43.74083" lon="6.75357">
        <ele>962.21520996094</ele>
        <time>2016-11-06T14:43:20.000Z</time>
      </trkpt>
      <trkpt lat="43.74081" lon="6.75359">
        <ele>961.93585205078</ele>
        <time>2016-11-06T14:43:22.000Z</time>
      </trkpt>
      <trkpt lat="43.74079" lon="6.75362">
        <ele>961.6259765625</ele>
        <time>2016-11-06T14:43:25.000Z</time>
      </trkpt>
      <trkpt lat="43.74076" lon="6.75363">
        <ele>961.02410888672</ele>
        <time>2016-11-06T14:43:28.000Z</time>
      </trkpt>
      <trkpt lat="43.74074" lon="6.75363">
        <ele>960.35900878906</ele>
        <time>2016-11-06T14:43:30.000Z</time>
      </trkpt>
      <trkpt lat="43.74072" lon="6.75365">
        <ele>959.55651855469</ele>
        <time>2016-11-06T14:43:33.000Z</time>
      </trkpt>
      <trkpt lat="43.74071" lon="6.75366">
        <ele>958.75085449219</ele>
        <time>2016-11-06T14:43:36.000Z</time>
      </trkpt>
      <trkpt lat="43.7407" lon="6.75367">
        <ele>957.99932861328</ele>
        <time>2016-11-06T14:43:38.000Z</time>
      </trkpt>
      <trkpt lat="43.74068" lon="6.75368">
        <ele>957.42236328125</ele>
        <time>2016-11-06T14:43:40.000Z</time>
      </trkpt>
      <trkpt lat="43.74066" lon="6.75371">
        <ele>956.81719970703</ele>
        <time>2016-11-06T14:43:43.000Z</time>
      </trkpt>
      <trkpt lat="43.74065" lon="6.75373">
        <ele>956.31982421875</ele>
        <time>2016-11-06T14:43:46.000Z</time>
      </trkpt>
      <trkpt lat="43.74063" lon="6.75373">
        <ele>955.82177734375</ele>
        <time>2016-11-06T14:43:51.000Z</time>
      </trkpt>
      <trkpt lat="43.74062" lon="6.75375">
        <ele>955.33905029297</ele>
        <time>2016-11-06T14:43:53.000Z</time>
      </trkpt>
      <trkpt lat="43.7406" lon="6.75378">
        <ele>954.85174560547</ele>
        <time>2016-11-06T14:43:56.000Z</time>
      </trkpt>
      <trkpt lat="43.74059" lon="6.75379">
        <ele>954.37957763672</ele>
        <time>2016-11-06T14:43:58.000Z</time>
      </trkpt>
      <trkpt lat="43.74057" lon="6.7538">
        <ele>953.90283203125</ele>
        <time>2016-11-06T14:44:00.000Z</time>
      </trkpt>
      <trkpt lat="43.74056" lon="6.75383">
        <ele>953.49822998047</ele>
        <time>2016-11-06T14:44:03.000Z</time>
      </trkpt>
      <trkpt lat="43.74056" lon="6.75385">
        <ele>953.21240234375</ele>
        <time>2016-11-06T14:44:05.000Z</time>
      </trkpt>
      <trkpt lat="43.74055" lon="6.75389">
        <ele>952.97491455078</ele>
        <time>2016-11-06T14:44:08.000Z</time>
      </trkpt>
      <trkpt lat="43.74053" lon="6.75392">
        <ele>952.75085449219</ele>
        <time>2016-11-06T14:44:11.000Z</time>
      </trkpt>
      <trkpt lat="43.74052" lon="6.75394">
        <ele>952.61639404297</ele>
        <time>2016-11-06T14:44:13.000Z</time>
      </trkpt>
      <trkpt lat="43.74053" lon="6.75396">
        <ele>952.59161376953</ele>
        <time>2016-11-06T14:44:16.000Z</time>
      </trkpt>
      <trkpt lat="43.74054" lon="6.75397">
        <ele>952.5703125</ele>
        <time>2016-11-06T14:44:18.000Z</time>
      </trkpt>
      <trkpt lat="43.74054" lon="6.754">
        <ele>952.66912841797</ele>
        <time>2016-11-06T14:44:21.000Z</time>
      </trkpt>
      <trkpt lat="43.74055" lon="6.75401">
        <ele>952.98553466797</ele>
        <time>2016-11-06T14:44:23.000Z</time>
      </trkpt>
      <trkpt lat="43.74056" lon="6.75402">
        <ele>953.419921875</ele>
        <time>2016-11-06T14:44:26.000Z</time>
      </trkpt>
      <trkpt lat="43.74057" lon="6.75403">
        <ele>953.83654785156</ele>
        <time>2016-11-06T14:44:28.000Z</time>
      </trkpt>
      <trkpt lat="43.74058" lon="6.75406">
        <ele>954.27947998047</ele>
        <time>2016-11-06T14:44:31.000Z</time>
      </trkpt>
      <trkpt lat="43.74057" lon="6.75408">
        <ele>954.64929199219</ele>
        <time>2016-11-06T14:44:33.000Z</time>
      </trkpt>
      <trkpt lat="43.74057" lon="6.7541">
        <ele>954.96453857422</ele>
        <time>2016-11-06T14:44:35.000Z</time>
      </trkpt>
      <trkpt lat="43.74057" lon="6.75412">
        <ele>955.15625</ele>
        <time>2016-11-06T14:44:37.000Z</time>
      </trkpt>
      <trkpt lat="43.74055" lon="6.75415">
        <ele>955.19299316406</ele>
        <time>2016-11-06T14:44:40.000Z</time>
      </trkpt>
      <trkpt lat="43.74054" lon="6.75417">
        <ele>955.11737060547</ele>
        <time>2016-11-06T14:44:42.000Z</time>
      </trkpt>
      <trkpt lat="43.74051" lon="6.75419">
        <ele>954.97119140625</ele>
        <time>2016-11-06T14:44:45.000Z</time>
      </trkpt>
      <trkpt lat="43.7405" lon="6.75422">
        <ele>954.87707519531</ele>
        <time>2016-11-06T14:44:48.000Z</time>
      </trkpt>
      <trkpt lat="43.74049" lon="6.75425">
        <ele>954.84899902344</ele>
        <time>2016-11-06T14:44:50.000Z</time>
      </trkpt>
      <trkpt lat="43.74049" lon="6.75426">
        <ele>954.94860839844</ele>
        <time>2016-11-06T14:44:52.000Z</time>
      </trkpt>
      <trkpt lat="43.74047" lon="6.75425">
        <ele>954.89208984375</ele>
        <time>2016-11-06T14:44:55.000Z</time>
      </trkpt>
      <trkpt lat="43.74044" lon="6.75424">
        <ele>954.68084716797</ele>
        <time>2016-11-06T14:44:58.000Z</time>
      </trkpt>
      <trkpt lat="43.74044" lon="6.75423">
        <ele>954.27673339844</ele>
        <time>2016-11-06T14:45:00.000Z</time>
      </trkpt>
      <trkpt lat="43.74043" lon="6.75423">
        <ele>953.74090576172</ele>
        <time>2016-11-06T14:45:03.000Z</time>
      </trkpt>
      <trkpt lat="43.74041" lon="6.75423">
        <ele>953.06866455078</ele>
        <time>2016-11-06T14:45:06.000Z</time>
      </trkpt>
      <trkpt lat="43.74039" lon="6.75426">
        <ele>952.55322265625</ele>
        <time>2016-11-06T14:45:09.000Z</time>
      </trkpt>
      <trkpt lat="43.74037" lon="6.75427">
        <ele>952.21270751953</ele>
        <time>2016-11-06T14:45:11.000Z</time>
      </trkpt>
      <trkpt lat="43.74036" lon="6.75429">
        <ele>952.05389404297</ele>
        <time>2016-11-06T14:45:14.000Z</time>
      </trkpt>
      <trkpt lat="43.74035" lon="6.75433">
        <ele>952.08239746094</ele>
        <time>2016-11-06T14:45:17.000Z</time>
      </trkpt>
      <trkpt lat="43.74031" lon="6.75437">
        <ele>952.15838623047</ele>
        <time>2016-11-06T14:45:20.000Z</time>
      </trkpt>
      <trkpt lat="43.74027" lon="6.75433">
        <ele>951.75231933594</ele>
        <time>2016-11-06T14:45:23.000Z</time>
      </trkpt>
      <trkpt lat="43.74026" lon="6.7543">
        <ele>951.17901611328</ele>
        <time>2016-11-06T14:45:25.000Z</time>
      </trkpt>
      <trkpt lat="43.74027" lon="6.75432">
        <ele>950.62927246094</ele>
        <time>2016-11-06T14:45:28.000Z</time>
      </trkpt>
      <trkpt lat="43.74028" lon="6.75434">
        <ele>950.13397216797</ele>
        <time>2016-11-06T14:45:31.000Z</time>
      </trkpt>
      <trkpt lat="43.74028" lon="6.75437">
        <ele>949.85900878906</ele>
        <time>2016-11-06T14:45:33.000Z</time>
      </trkpt>
      <trkpt lat="43.74027" lon="6.75435">
        <ele>949.93475341797</ele>
        <time>2016-11-06T14:45:35.000Z</time>
      </trkpt>
      <trkpt lat="43.74024" lon="6.75431">
        <ele>949.79333496094</ele>
        <time>2016-11-06T14:45:38.000Z</time>
      </trkpt>
      <trkpt lat="43.7402" lon="6.7543">
        <ele>949.24688720703</ele>
        <time>2016-11-06T14:45:41.000Z</time>
      </trkpt>
      <trkpt lat="43.74018" lon="6.75429">
        <ele>948.30694580078</ele>
        <time>2016-11-06T14:45:43.000Z</time>
      </trkpt>
      <trkpt lat="43.74014" lon="6.75428">
        <ele>946.93438720703</ele>
        <time>2016-11-06T14:45:45.000Z</time>
      </trkpt>
      <trkpt lat="43.7401" lon="6.75428">
        <ele>945.42175292969</ele>
        <time>2016-11-06T14:45:48.000Z</time>
      </trkpt>
      <trkpt lat="43.74006" lon="6.75428">
        <ele>944.05358886719</ele>
        <time>2016-11-06T14:45:51.000Z</time>
      </trkpt>
      <trkpt lat="43.74002" lon="6.75426">
        <ele>942.61096191406</ele>
        <time>2016-11-06T14:45:53.000Z</time>
      </trkpt>
      <trkpt lat="43.73997" lon="6.75422">
        <ele>940.84802246094</ele>
        <time>2016-11-06T14:45:56.000Z</time>
      </trkpt>
      <trkpt lat="43.73994" lon="6.75423">
        <ele>939.26599121094</ele>
        <time>2016-11-06T14:45:59.000Z</time>
      </trkpt>
      <trkpt lat="43.73993" lon="6.75423">
        <ele>937.95391845703</ele>
        <time>2016-11-06T14:46:01.000Z</time>
      </trkpt>
      <trkpt lat="43.73991" lon="6.75424">
        <ele>936.81561279297</ele>
        <time>2016-11-06T14:46:04.000Z</time>
      </trkpt>
      <trkpt lat="43.7399" lon="6.75426">
        <ele>936.15222167969</ele>
        <time>2016-11-06T14:46:06.000Z</time>
      </trkpt>
      <trkpt lat="43.73991" lon="6.75427">
        <ele>936.13928222656</ele>
        <time>2016-11-06T14:46:08.000Z</time>
      </trkpt>
      <trkpt lat="43.73991" lon="6.75429">
        <ele>936.27038574219</ele>
        <time>2016-11-06T14:46:11.000Z</time>
      </trkpt>
      <trkpt lat="43.73989" lon="6.75432">
        <ele>936.51580810547</ele>
        <time>2016-11-06T14:46:13.000Z</time>
      </trkpt>
      <trkpt lat="43.73988" lon="6.75436">
        <ele>937.02355957031</ele>
        <time>2016-11-06T14:46:15.000Z</time>
      </trkpt>
      <trkpt lat="43.73986" lon="6.75438">
        <ele>937.46807861328</ele>
        <time>2016-11-06T14:46:18.000Z</time>
      </trkpt>
      <trkpt lat="43.73985" lon="6.7544">
        <ele>937.86102294922</ele>
        <time>2016-11-06T14:46:21.000Z</time>
      </trkpt>
      <trkpt lat="43.73985" lon="6.75444">
        <ele>938.38543701172</ele>
        <time>2016-11-06T14:46:24.000Z</time>
      </trkpt>
      <trkpt lat="43.73984" lon="6.75446">
        <ele>938.876953125</ele>
        <time>2016-11-06T14:46:27.000Z</time>
      </trkpt>
      <trkpt lat="43.73984" lon="6.75449">
        <ele>939.3154296875</ele>
        <time>2016-11-06T14:46:30.000Z</time>
      </trkpt>
      <trkpt lat="43.73983" lon="6.75453">
        <ele>939.94512939453</ele>
        <time>2016-11-06T14:46:33.000Z</time>
      </trkpt>
      <trkpt lat="43.73982" lon="6.75456">
        <ele>940.61700439453</ele>
        <time>2016-11-06T14:46:35.000Z</time>
      </trkpt>
      <trkpt lat="43.73981" lon="6.7546">
        <ele>941.21990966797</ele>
        <time>2016-11-06T14:46:38.000Z</time>
      </trkpt>
      <trkpt lat="43.7398" lon="6.75462">
        <ele>941.85626220703</ele>
        <time>2016-11-06T14:46:41.000Z</time>
      </trkpt>
      <trkpt lat="43.7398" lon="6.75467">
        <ele>942.6328125</ele>
        <time>2016-11-06T14:46:44.000Z</time>
      </trkpt>
      <trkpt lat="43.73981" lon="6.75473">
        <ele>943.55645751953</ele>
        <time>2016-11-06T14:46:47.000Z</time>
      </trkpt>
      <trkpt lat="43.73981" lon="6.75477">
        <ele>944.5791015625</ele>
        <time>2016-11-06T14:46:49.000Z</time>
      </trkpt>
      <trkpt lat="43.7398" lon="6.75483">
        <ele>945.66491699219</ele>
        <time>2016-11-06T14:46:52.000Z</time>
      </trkpt>
      <trkpt lat="43.73978" lon="6.75487">
        <ele>946.78662109375</ele>
        <time>2016-11-06T14:46:55.000Z</time>
      </trkpt>
      <trkpt lat="43.73977" lon="6.7549">
        <ele>947.7958984375</ele>
        <time>2016-11-06T14:46:57.000Z</time>
      </trkpt>
      <trkpt lat="43.73974" lon="6.75495">
        <ele>948.47576904297</ele>
        <time>2016-11-06T14:47:00.000Z</time>
      </trkpt>
      <trkpt lat="43.73972" lon="6.75499">
        <ele>948.9951171875</ele>
        <time>2016-11-06T14:47:02.000Z</time>
      </trkpt>
      <trkpt lat="43.73969" lon="6.75503">
        <ele>949.26904296875</ele>
        <time>2016-11-06T14:47:05.000Z</time>
      </trkpt>
      <trkpt lat="43.73966" lon="6.75509">
        <ele>949.30126953125</ele>
        <time>2016-11-06T14:47:08.000Z</time>
      </trkpt>
      <trkpt lat="43.73964" lon="6.75514">
        <ele>949.20910644531</ele>
        <time>2016-11-06T14:47:11.000Z</time>
      </trkpt>
      <trkpt lat="43.73964" lon="6.75517">
        <ele>949.107421875</ele>
        <time>2016-11-06T14:47:13.000Z</time>
      </trkpt>
      <trkpt lat="43.73962" lon="6.75522">
        <ele>948.92510986328</ele>
        <time>2016-11-06T14:47:16.000Z</time>
      </trkpt>
      <trkpt lat="43.7396" lon="6.75526">
        <ele>948.7802734375</ele>
        <time>2016-11-06T14:47:19.000Z</time>
      </trkpt>
      <trkpt lat="43.7396" lon="6.75528">
        <ele>948.75622558594</ele>
        <time>2016-11-06T14:47:21.000Z</time>
      </trkpt>
      <trkpt lat="43.73957" lon="6.75537">
        <ele>948.74816894531</ele>
        <time>2016-11-06T14:47:24.000Z</time>
      </trkpt>
      <trkpt lat="43.73956" lon="6.75539">
        <ele>948.6787109375</ele>
        <time>2016-11-06T14:47:26.000Z</time>
      </trkpt>
      <trkpt lat="43.73956" lon="6.75541">
        <ele>948.61877441406</ele>
        <time>2016-11-06T14:47:29.000Z</time>
      </trkpt>
      <trkpt lat="43.73955" lon="6.75543">
        <ele>948.55627441406</ele>
        <time>2016-11-06T14:47:32.000Z</time>
      </trkpt>
      <trkpt lat="43.73952" lon="6.75545">
        <ele>948.35693359375</ele>
        <time>2016-11-06T14:47:34.000Z</time>
      </trkpt>
      <trkpt lat="43.7395" lon="6.75547">
        <ele>948.00207519531</ele>
        <time>2016-11-06T14:47:37.000Z</time>
      </trkpt>
      <trkpt lat="43.73948" lon="6.7555">
        <ele>947.59979248047</ele>
        <time>2016-11-06T14:47:40.000Z</time>
      </trkpt>
      <trkpt lat="43.73946" lon="6.75552">
        <ele>947.17810058594</ele>
        <time>2016-11-06T14:47:42.000Z</time>
      </trkpt>
      <trkpt lat="43.73943" lon="6.75556">
        <ele>946.61218261719</ele>
        <time>2016-11-06T14:47:45.000Z</time>
      </trkpt>
      <trkpt lat="43.73941" lon="6.7556">
        <ele>946.11541748047</ele>
        <time>2016-11-06T14:47:48.000Z</time>
      </trkpt>
      <trkpt lat="43.7394" lon="6.75562">
        <ele>945.68933105469</ele>
        <time>2016-11-06T14:47:50.000Z</time>
      </trkpt>
      <trkpt lat="43.73938" lon="6.75564">
        <ele>945.25946044922</ele>
        <time>2016-11-06T14:47:53.000Z</time>
      </trkpt>
      <trkpt lat="43.73937" lon="6.75567">
        <ele>944.84149169922</ele>
        <time>2016-11-06T14:47:55.000Z</time>
      </trkpt>
      <trkpt lat="43.73936" lon="6.7557">
        <ele>944.51776123047</ele>
        <time>2016-11-06T14:47:58.000Z</time>
      </trkpt>
      <trkpt lat="43.73936" lon="6.75569">
        <ele>944.28192138672</ele>
        <time>2016-11-06T14:48:04.000Z</time>
      </trkpt>
      <trkpt lat="43.73942" lon="6.75569">
        <ele>944.52557373047</ele>
        <time>2016-11-06T14:48:13.000Z</time>
      </trkpt>
      <trkpt lat="43.73943" lon="6.75568">
        <ele>944.90026855469</ele>
        <time>2016-11-06T14:48:15.000Z</time>
      </trkpt>
      <trkpt lat="43.73944" lon="6.75569">
        <ele>945.40966796875</ele>
        <time>2016-11-06T14:48:20.000Z</time>
      </trkpt>
      <trkpt lat="43.73943" lon="6.7557">
        <ele>945.91027832031</ele>
        <time>2016-11-06T14:48:23.000Z</time>
      </trkpt>
      <trkpt lat="43.73942" lon="6.75571">
        <ele>946.35986328125</ele>
        <time>2016-11-06T14:48:26.000Z</time>
      </trkpt>
      <trkpt lat="43.73941" lon="6.75573">
        <ele>946.375</ele>
        <time>2016-11-06T14:48:46.000Z</time>
      </trkpt>
      <trkpt lat="43.7394" lon="6.75575">
        <ele>946.30627441406</ele>
        <time>2016-11-06T14:48:49.000Z</time>
      </trkpt>
      <trkpt lat="43.73938" lon="6.75577">
        <ele>946.0205078125</ele>
        <time>2016-11-06T14:48:51.000Z</time>
      </trkpt>
      <trkpt lat="43.73937" lon="6.75578">
        <ele>945.771484375</ele>
        <time>2016-11-06T14:48:53.000Z</time>
      </trkpt>
      <trkpt lat="43.73937" lon="6.75582">
        <ele>945.62390136719</ele>
        <time>2016-11-06T14:48:56.000Z</time>
      </trkpt>
      <trkpt lat="43.73937" lon="6.75586">
        <ele>945.54577636719</ele>
        <time>2016-11-06T14:48:59.000Z</time>
      </trkpt>
      <trkpt lat="43.73936" lon="6.75588">
        <ele>945.46618652344</ele>
        <time>2016-11-06T14:49:01.000Z</time>
      </trkpt>
      <trkpt lat="43.73936" lon="6.75589">
        <ele>945.46081542969</ele>
        <time>2016-11-06T14:49:03.000Z</time>
      </trkpt>
      <trkpt lat="43.73935" lon="6.75593">
        <ele>945.46160888672</ele>
        <time>2016-11-06T14:49:06.000Z</time>
      </trkpt>
      <trkpt lat="43.73934" lon="6.75596">
        <ele>945.40002441406</ele>
        <time>2016-11-06T14:49:08.000Z</time>
      </trkpt>
      <trkpt lat="43.73933" lon="6.756">
        <ele>945.21307373047</ele>
        <time>2016-11-06T14:49:11.000Z</time>
      </trkpt>
      <trkpt lat="43.73931" lon="6.75604">
        <ele>944.98693847656</ele>
        <time>2016-11-06T14:49:14.000Z</time>
      </trkpt>
      <trkpt lat="43.73932" lon="6.75609">
        <ele>944.90734863281</ele>
        <time>2016-11-06T14:49:17.000Z</time>
      </trkpt>
      <trkpt lat="43.73933" lon="6.75611">
        <ele>944.93865966797</ele>
        <time>2016-11-06T14:49:19.000Z</time>
      </trkpt>
      <trkpt lat="43.73933" lon="6.75613">
        <ele>944.99151611328</ele>
        <time>2016-11-06T14:49:21.000Z</time>
      </trkpt>
      <trkpt lat="43.7393" lon="6.75619">
        <ele>944.96453857422</ele>
        <time>2016-11-06T14:49:24.000Z</time>
      </trkpt>
      <trkpt lat="43.73928" lon="6.75625">
        <ele>944.98614501953</ele>
        <time>2016-11-06T14:49:27.000Z</time>
      </trkpt>
      <trkpt lat="43.73928" lon="6.75631">
        <ele>944.93133544922</ele>
        <time>2016-11-06T14:49:30.000Z</time>
      </trkpt>
      <trkpt lat="43.73928" lon="6.75634">
        <ele>944.85705566406</ele>
        <time>2016-11-06T14:49:32.000Z</time>
      </trkpt>
      <trkpt lat="43.73928" lon="6.75638">
        <ele>944.77032470703</ele>
        <time>2016-11-06T14:49:34.000Z</time>
      </trkpt>
      <trkpt lat="43.73927" lon="6.75642">
        <ele>944.78302001953</ele>
        <time>2016-11-06T14:49:37.000Z</time>
      </trkpt>
      <trkpt lat="43.73927" lon="6.75644">
        <ele>944.81970214844</ele>
        <time>2016-11-06T14:49:39.000Z</time>
      </trkpt>
      <trkpt lat="43.73925" lon="6.7565">
        <ele>944.7578125</ele>
        <time>2016-11-06T14:49:42.000Z</time>
      </trkpt>
      <trkpt lat="43.73923" lon="6.75655">
        <ele>944.49493408203</ele>
        <time>2016-11-06T14:49:45.000Z</time>
      </trkpt>
      <trkpt lat="43.73922" lon="6.75658">
        <ele>944.25994873047</ele>
        <time>2016-11-06T14:49:47.000Z</time>
      </trkpt>
      <trkpt lat="43.73922" lon="6.75663">
        <ele>944.06866455078</ele>
        <time>2016-11-06T14:49:50.000Z</time>
      </trkpt>
      <trkpt lat="43.73921" lon="6.75667">
        <ele>943.88494873047</ele>
        <time>2016-11-06T14:49:52.000Z</time>
      </trkpt>
      <trkpt lat="43.73921" lon="6.75671">
        <ele>943.74963378906</ele>
        <time>2016-11-06T14:49:54.000Z</time>
      </trkpt>
      <trkpt lat="43.7392" lon="6.75676">
        <ele>943.69989013672</ele>
        <time>2016-11-06T14:49:57.000Z</time>
      </trkpt>
      <trkpt lat="43.73919" lon="6.75679">
        <ele>943.55975341797</ele>
        <time>2016-11-06T14:49:59.000Z</time>
      </trkpt>
      <trkpt lat="43.73918" lon="6.75683">
        <ele>943.31848144531</ele>
        <time>2016-11-06T14:50:02.000Z</time>
      </trkpt>
      <trkpt lat="43.73917" lon="6.75688">
        <ele>943.02374267578</ele>
        <time>2016-11-06T14:50:05.000Z</time>
      </trkpt>
      <trkpt lat="43.73915" lon="6.75693">
        <ele>942.65612792969</ele>
        <time>2016-11-06T14:50:08.000Z</time>
      </trkpt>
      <trkpt lat="43.73914" lon="6.75695">
        <ele>942.23962402344</ele>
        <time>2016-11-06T14:50:10.000Z</time>
      </trkpt>
      <trkpt lat="43.73914" lon="6.75696">
        <ele>941.88220214844</ele>
        <time>2016-11-06T14:50:17.000Z</time>
      </trkpt>
      <trkpt lat="43.73914" lon="6.757">
        <ele>941.65020751953</ele>
        <time>2016-11-06T14:50:20.000Z</time>
      </trkpt>
      <trkpt lat="43.73913" lon="6.75704">
        <ele>941.45251464844</ele>
        <time>2016-11-06T14:50:22.000Z</time>
      </trkpt>
      <trkpt lat="43.73912" lon="6.75708">
        <ele>941.25842285156</ele>
        <time>2016-11-06T14:50:25.000Z</time>
      </trkpt>
      <trkpt lat="43.73911" lon="6.7571">
        <ele>941.11846923828</ele>
        <time>2016-11-06T14:50:27.000Z</time>
      </trkpt>
      <trkpt lat="43.7391" lon="6.75712">
        <ele>940.95349121094</ele>
        <time>2016-11-06T14:50:29.000Z</time>
      </trkpt>
      <trkpt lat="43.73909" lon="6.75716">
        <ele>940.73907470703</ele>
        <time>2016-11-06T14:50:32.000Z</time>
      </trkpt>
      <trkpt lat="43.73909" lon="6.75719">
        <ele>940.50030517578</ele>
        <time>2016-11-06T14:50:34.000Z</time>
      </trkpt>
      <trkpt lat="43.73908" lon="6.75724">
        <ele>940.34423828125</ele>
        <time>2016-11-06T14:50:37.000Z</time>
      </trkpt>
      <trkpt lat="43.73909" lon="6.75728">
        <ele>940.29650878906</ele>
        <time>2016-11-06T14:50:40.000Z</time>
      </trkpt>
      <trkpt lat="43.73909" lon="6.75733">
        <ele>940.30841064453</ele>
        <time>2016-11-06T14:50:43.000Z</time>
      </trkpt>
      <trkpt lat="43.73909" lon="6.75737">
        <ele>940.34753417969</ele>
        <time>2016-11-06T14:50:46.000Z</time>
      </trkpt>
      <trkpt lat="43.73907" lon="6.75742">
        <ele>940.32012939453</ele>
        <time>2016-11-06T14:50:49.000Z</time>
      </trkpt>
      <trkpt lat="43.73906" lon="6.75747">
        <ele>940.26873779297</ele>
        <time>2016-11-06T14:50:52.000Z</time>
      </trkpt>
      <trkpt lat="43.73907" lon="6.7575">
        <ele>940.23651123047</ele>
        <time>2016-11-06T14:50:54.000Z</time>
      </trkpt>
      <trkpt lat="43.73909" lon="6.75752">
        <ele>940.27136230469</ele>
        <time>2016-11-06T14:50:56.000Z</time>
      </trkpt>
      <trkpt lat="43.7391" lon="6.75755">
        <ele>940.45861816406</ele>
        <time>2016-11-06T14:50:59.000Z</time>
      </trkpt>
      <trkpt lat="43.73912" lon="6.7576">
        <ele>940.900390625</ele>
        <time>2016-11-06T14:51:02.000Z</time>
      </trkpt>
      <trkpt lat="43.73912" lon="6.75766">
        <ele>941.45428466797</ele>
        <time>2016-11-06T14:51:05.000Z</time>
      </trkpt>
      <trkpt lat="43.73912" lon="6.75768">
        <ele>941.9912109375</ele>
        <time>2016-11-06T14:51:07.000Z</time>
      </trkpt>
      <trkpt lat="43.73912" lon="6.75771">
        <ele>942.46270751953</ele>
        <time>2016-11-06T14:51:09.000Z</time>
      </trkpt>
      <trkpt lat="43.73911" lon="6.75776">
        <ele>942.80920410156</ele>
        <time>2016-11-06T14:51:12.000Z</time>
      </trkpt>
      <trkpt lat="43.73911" lon="6.7578">
        <ele>943.03063964844</ele>
        <time>2016-11-06T14:51:15.000Z</time>
      </trkpt>
      <trkpt lat="43.7391" lon="6.75785">
        <ele>943.22412109375</ele>
        <time>2016-11-06T14:51:18.000Z</time>
      </trkpt>
      <trkpt lat="43.7391" lon="6.7579">
        <ele>943.42370605469</ele>
        <time>2016-11-06T14:51:21.000Z</time>
      </trkpt>
      <trkpt lat="43.73909" lon="6.75794">
        <ele>943.56005859375</ele>
        <time>2016-11-06T14:51:23.000Z</time>
      </trkpt>
      <trkpt lat="43.73906" lon="6.75797">
        <ele>943.53399658203</ele>
        <time>2016-11-06T14:51:26.000Z</time>
      </trkpt>
      <trkpt lat="43.73904" lon="6.758">
        <ele>943.48669433594</ele>
        <time>2016-11-06T14:51:29.000Z</time>
      </trkpt>
      <trkpt lat="43.73904" lon="6.75803">
        <ele>943.39044189453</ele>
        <time>2016-11-06T14:51:31.000Z</time>
      </trkpt>
      <trkpt lat="43.73902" lon="6.75808">
        <ele>943.19177246094</ele>
        <time>2016-11-06T14:51:34.000Z</time>
      </trkpt>
      <trkpt lat="43.73901" lon="6.7581">
        <ele>942.95947265625</ele>
        <time>2016-11-06T14:51:36.000Z</time>
      </trkpt>
      <trkpt lat="43.73899" lon="6.75815">
        <ele>942.82995605469</ele>
        <time>2016-11-06T14:51:39.000Z</time>
      </trkpt>
      <trkpt lat="43.73897" lon="6.75819">
        <ele>942.68566894531</ele>
        <time>2016-11-06T14:51:42.000Z</time>
      </trkpt>
      <trkpt lat="43.73896" lon="6.7582">
        <ele>942.50964355469</ele>
        <time>2016-11-06T14:51:44.000Z</time>
      </trkpt>
      <trkpt lat="43.73893" lon="6.75822">
        <ele>942.208984375</ele>
        <time>2016-11-06T14:51:47.000Z</time>
      </trkpt>
      <trkpt lat="43.73892" lon="6.75825">
        <ele>941.95831298828</ele>
        <time>2016-11-06T14:51:49.000Z</time>
      </trkpt>
      <trkpt lat="43.73893" lon="6.75829">
        <ele>941.80938720703</ele>
        <time>2016-11-06T14:51:52.000Z</time>
      </trkpt>
      <trkpt lat="43.73893" lon="6.75832">
        <ele>941.71502685547</ele>
        <time>2016-11-06T14:51:54.000Z</time>
      </trkpt>
      <trkpt lat="43.73891" lon="6.75835">
        <ele>941.68927001953</ele>
        <time>2016-11-06T14:51:56.000Z</time>
      </trkpt>
      <trkpt lat="43.73888" lon="6.75838">
        <ele>941.73223876953</ele>
        <time>2016-11-06T14:51:59.000Z</time>
      </trkpt>
      <trkpt lat="43.73885" lon="6.75843">
        <ele>941.78454589844</ele>
        <time>2016-11-06T14:52:02.000Z</time>
      </trkpt>
      <trkpt lat="43.73884" lon="6.7585">
        <ele>941.90783691406</ele>
        <time>2016-11-06T14:52:05.000Z</time>
      </trkpt>
      <trkpt lat="43.73882" lon="6.75853">
        <ele>941.97735595703</ele>
        <time>2016-11-06T14:52:07.000Z</time>
      </trkpt>
      <trkpt lat="43.73878" lon="6.75856">
        <ele>941.91662597656</ele>
        <time>2016-11-06T14:52:10.000Z</time>
      </trkpt>
      <trkpt lat="43.73874" lon="6.75858">
        <ele>941.78485107422</ele>
        <time>2016-11-06T14:52:13.000Z</time>
      </trkpt>
      <trkpt lat="43.73872" lon="6.75864">
        <ele>941.70397949219</ele>
        <time>2016-11-06T14:52:16.000Z</time>
      </trkpt>
      <trkpt lat="43.7387" lon="6.75869">
        <ele>941.55792236328</ele>
        <time>2016-11-06T14:52:18.000Z</time>
      </trkpt>
      <trkpt lat="43.7387" lon="6.75873">
        <ele>941.56378173828</ele>
        <time>2016-11-06T14:52:20.000Z</time>
      </trkpt>
      <trkpt lat="43.73868" lon="6.75878">
        <ele>941.71862792969</ele>
        <time>2016-11-06T14:52:23.000Z</time>
      </trkpt>
      <trkpt lat="43.73866" lon="6.75881">
        <ele>942.02014160156</ele>
        <time>2016-11-06T14:52:25.000Z</time>
      </trkpt>
      <trkpt lat="43.73864" lon="6.75882">
        <ele>942.17395019531</ele>
        <time>2016-11-06T14:52:27.000Z</time>
      </trkpt>
      <trkpt lat="43.7386" lon="6.75882">
        <ele>942.0751953125</ele>
        <time>2016-11-06T14:52:30.000Z</time>
      </trkpt>
      <trkpt lat="43.73856" lon="6.75881">
        <ele>941.56964111328</ele>
        <time>2016-11-06T14:52:33.000Z</time>
      </trkpt>
      <trkpt lat="43.73854" lon="6.75882">
        <ele>940.96502685547</ele>
        <time>2016-11-06T14:52:35.000Z</time>
      </trkpt>
      <trkpt lat="43.73853" lon="6.75882">
        <ele>940.30731201172</ele>
        <time>2016-11-06T14:52:37.000Z</time>
      </trkpt>
      <trkpt lat="43.7385" lon="6.75882">
        <ele>939.552734375</ele>
        <time>2016-11-06T14:52:40.000Z</time>
      </trkpt>
      <trkpt lat="43.73848" lon="6.75884">
        <ele>938.93231201172</ele>
        <time>2016-11-06T14:52:42.000Z</time>
      </trkpt>
      <trkpt lat="43.73845" lon="6.75887">
        <ele>938.52673339844</ele>
        <time>2016-11-06T14:52:45.000Z</time>
      </trkpt>
      <trkpt lat="43.73842" lon="6.75888">
        <ele>938.0556640625</ele>
        <time>2016-11-06T14:52:47.000Z</time>
      </trkpt>
      <trkpt lat="43.73839" lon="6.75889">
        <ele>937.53186035156</ele>
        <time>2016-11-06T14:52:50.000Z</time>
      </trkpt>
      <trkpt lat="43.73838" lon="6.75891">
        <ele>937.1884765625</ele>
        <time>2016-11-06T14:52:52.000Z</time>
      </trkpt>
      <trkpt lat="43.73835" lon="6.75893">
        <ele>936.85089111328</ele>
        <time>2016-11-06T14:52:55.000Z</time>
      </trkpt>
      <trkpt lat="43.7383" lon="6.75897">
        <ele>936.49395751953</ele>
        <time>2016-11-06T14:52:58.000Z</time>
      </trkpt>
      <trkpt lat="43.73826" lon="6.75899">
        <ele>936.17901611328</ele>
        <time>2016-11-06T14:53:01.000Z</time>
      </trkpt>
      <trkpt lat="43.73824" lon="6.75902">
        <ele>936.00329589844</ele>
        <time>2016-11-06T14:53:03.000Z</time>
      </trkpt>
      <trkpt lat="43.73822" lon="6.75904">
        <ele>935.82385253906</ele>
        <time>2016-11-06T14:53:06.000Z</time>
      </trkpt>
      <trkpt lat="43.73819" lon="6.75906">
        <ele>935.66540527344</ele>
        <time>2016-11-06T14:53:09.000Z</time>
      </trkpt>
      <trkpt lat="43.73815" lon="6.75908">
        <ele>935.51104736328</ele>
        <time>2016-11-06T14:53:12.000Z</time>
      </trkpt>
      <trkpt lat="43.73813" lon="6.75911">
        <ele>935.44689941406</ele>
        <time>2016-11-06T14:53:15.000Z</time>
      </trkpt>
      <trkpt lat="43.73811" lon="6.75914">
        <ele>935.37908935547</ele>
        <time>2016-11-06T14:53:18.000Z</time>
      </trkpt>
      <trkpt lat="43.73809" lon="6.75915">
        <ele>935.30993652344</ele>
        <time>2016-11-06T14:53:20.000Z</time>
      </trkpt>
      <trkpt lat="43.73805" lon="6.75916">
        <ele>935.1689453125</ele>
        <time>2016-11-06T14:53:23.000Z</time>
      </trkpt>
      <trkpt lat="43.73802" lon="6.75916">
        <ele>934.96923828125</ele>
        <time>2016-11-06T14:53:26.000Z</time>
      </trkpt>
      <trkpt lat="43.738" lon="6.75917">
        <ele>934.70642089844</ele>
        <time>2016-11-06T14:53:28.000Z</time>
      </trkpt>
      <trkpt lat="43.73798" lon="6.75918">
        <ele>934.40740966797</ele>
        <time>2016-11-06T14:53:30.000Z</time>
      </trkpt>
      <trkpt lat="43.73796" lon="6.75921">
        <ele>934.1005859375</ele>
        <time>2016-11-06T14:53:33.000Z</time>
      </trkpt>
      <trkpt lat="43.73794" lon="6.75925">
        <ele>933.90124511719</ele>
        <time>2016-11-06T14:53:36.000Z</time>
      </trkpt>
      <trkpt lat="43.73793" lon="6.75928">
        <ele>933.83557128906</ele>
        <time>2016-11-06T14:53:39.000Z</time>
      </trkpt>
      <trkpt lat="43.73792" lon="6.75931">
        <ele>933.83752441406</ele>
        <time>2016-11-06T14:53:42.000Z</time>
      </trkpt>
      <trkpt lat="43.73791" lon="6.75932">
        <ele>933.82849121094</ele>
        <time>2016-11-06T14:53:44.000Z</time>
      </trkpt>
      <trkpt lat="43.73788" lon="6.75935">
        <ele>933.80920410156</ele>
        <time>2016-11-06T14:53:47.000Z</time>
      </trkpt>
      <trkpt lat="43.73785" lon="6.75939">
        <ele>933.73016357422</ele>
        <time>2016-11-06T14:53:50.000Z</time>
      </trkpt>
      <trkpt lat="43.73783" lon="6.75941">
        <ele>933.60528564453</ele>
        <time>2016-11-06T14:53:52.000Z</time>
      </trkpt>
      <trkpt lat="43.73782" lon="6.75943">
        <ele>933.44921875</ele>
        <time>2016-11-06T14:53:54.000Z</time>
      </trkpt>
      <trkpt lat="43.7378" lon="6.75947">
        <ele>933.306640625</ele>
        <time>2016-11-06T14:53:57.000Z</time>
      </trkpt>
      <trkpt lat="43.73779" lon="6.75949">
        <ele>933.17401123047</ele>
        <time>2016-11-06T14:53:59.000Z</time>
      </trkpt>
      <trkpt lat="43.73776" lon="6.75951">
        <ele>933.03302001953</ele>
        <time>2016-11-06T14:54:02.000Z</time>
      </trkpt>
      <trkpt lat="43.73774" lon="6.75953">
        <ele>932.87713623047</ele>
        <time>2016-11-06T14:54:04.000Z</time>
      </trkpt>
      <trkpt lat="43.73773" lon="6.75955">
        <ele>932.7099609375</ele>
        <time>2016-11-06T14:54:06.000Z</time>
      </trkpt>
      <trkpt lat="43.73771" lon="6.75958">
        <ele>932.53533935547</ele>
        <time>2016-11-06T14:54:09.000Z</time>
      </trkpt>
      <trkpt lat="43.73771" lon="6.75961">
        <ele>932.41815185547</ele>
        <time>2016-11-06T14:54:12.000Z</time>
      </trkpt>
      <trkpt lat="43.73771" lon="6.75965">
        <ele>932.46179199219</ele>
        <time>2016-11-06T14:54:15.000Z</time>
      </trkpt>
      <trkpt lat="43.73772" lon="6.75969">
        <ele>932.66174316406</ele>
        <time>2016-11-06T14:54:18.000Z</time>
      </trkpt>
      <trkpt lat="43.73774" lon="6.75973">
        <ele>933.00799560547</ele>
        <time>2016-11-06T14:54:21.000Z</time>
      </trkpt>
      <trkpt lat="43.73775" lon="6.75977">
        <ele>933.49279785156</ele>
        <time>2016-11-06T14:54:24.000Z</time>
      </trkpt>
      <trkpt lat="43.73775" lon="6.75979">
        <ele>934.01580810547</ele>
        <time>2016-11-06T14:54:26.000Z</time>
      </trkpt>
      <trkpt lat="43.73776" lon="6.75981">
        <ele>934.4853515625</ele>
        <time>2016-11-06T14:54:28.000Z</time>
      </trkpt>
      <trkpt lat="43.73778" lon="6.75985">
        <ele>934.99609375</ele>
        <time>2016-11-06T14:54:31.000Z</time>
      </trkpt>
      <trkpt lat="43.73778" lon="6.75989">
        <ele>935.46887207031</ele>
        <time>2016-11-06T14:54:34.000Z</time>
      </trkpt>
      <trkpt lat="43.73779" lon="6.75994">
        <ele>935.92645263672</ele>
        <time>2016-11-06T14:54:37.000Z</time>
      </trkpt>
      <trkpt lat="43.73779" lon="6.75997">
        <ele>936.3798828125</ele>
        <time>2016-11-06T14:54:39.000Z</time>
      </trkpt>
      <trkpt lat="43.73779" lon="6.76">
        <ele>936.85729980469</ele>
        <time>2016-11-06T14:54:41.000Z</time>
      </trkpt>
      <trkpt lat="43.7378" lon="6.76004">
        <ele>937.25256347656</ele>
        <time>2016-11-06T14:54:44.000Z</time>
      </trkpt>
      <trkpt lat="43.7378" lon="6.76009">
        <ele>937.61047363281</ele>
        <time>2016-11-06T14:54:47.000Z</time>
      </trkpt>
      <trkpt lat="43.7378" lon="6.76014">
        <ele>937.92901611328</ele>
        <time>2016-11-06T14:54:50.000Z</time>
      </trkpt>
      <trkpt lat="43.7378" lon="6.76017">
        <ele>938.20703125</ele>
        <time>2016-11-06T14:54:52.000Z</time>
      </trkpt>
      <trkpt lat="43.73779" lon="6.76022">
        <ele>938.40100097656</ele>
        <time>2016-11-06T14:54:55.000Z</time>
      </trkpt>
      <trkpt lat="43.73777" lon="6.76028">
        <ele>938.47314453125</ele>
        <time>2016-11-06T14:54:58.000Z</time>
      </trkpt>
      <trkpt lat="43.73775" lon="6.76032">
        <ele>938.39630126953</ele>
        <time>2016-11-06T14:55:01.000Z</time>
      </trkpt>
      <trkpt lat="43.73772" lon="6.76035">
        <ele>938.14880371094</ele>
        <time>2016-11-06T14:55:03.000Z</time>
      </trkpt>
      <trkpt lat="43.73769" lon="6.76038">
        <ele>937.70050048828</ele>
        <time>2016-11-06T14:55:06.000Z</time>
      </trkpt>
      <trkpt lat="43.73767" lon="6.7604">
        <ele>937.16766357422</ele>
        <time>2016-11-06T14:55:08.000Z</time>
      </trkpt>
      <trkpt lat="43.73763" lon="6.76043">
        <ele>936.537109375</ele>
        <time>2016-11-06T14:55:11.000Z</time>
      </trkpt>
      <trkpt lat="43.7376" lon="6.76046">
        <ele>935.81317138672</ele>
        <time>2016-11-06T14:55:14.000Z</time>
      </trkpt>
      <trkpt lat="43.73758" lon="6.76048">
        <ele>935.09338378906</ele>
        <time>2016-11-06T14:55:16.000Z</time>
      </trkpt>
      <trkpt lat="43.73755" lon="6.76049">
        <ele>934.39532470703</ele>
        <time>2016-11-06T14:55:18.000Z</time>
      </trkpt>
      <trkpt lat="43.73751" lon="6.76051">
        <ele>933.61926269531</ele>
        <time>2016-11-06T14:55:21.000Z</time>
      </trkpt>
      <trkpt lat="43.73748" lon="6.76053">
        <ele>932.84893798828</ele>
        <time>2016-11-06T14:55:24.000Z</time>
      </trkpt>
      <trkpt lat="43.73745" lon="6.76055">
        <ele>932.17248535156</ele>
        <time>2016-11-06T14:55:27.000Z</time>
      </trkpt>
      <trkpt lat="43.73742" lon="6.76058">
        <ele>931.50860595703</ele>
        <time>2016-11-06T14:55:30.000Z</time>
      </trkpt>
      <trkpt lat="43.7374" lon="6.76061">
        <ele>930.90100097656</ele>
        <time>2016-11-06T14:55:33.000Z</time>
      </trkpt>
      <trkpt lat="43.73738" lon="6.76063">
        <ele>930.41241455078</ele>
        <time>2016-11-06T14:55:35.000Z</time>
      </trkpt>
      <trkpt lat="43.73735" lon="6.76067">
        <ele>929.99200439453</ele>
        <time>2016-11-06T14:55:38.000Z</time>
      </trkpt>
      <trkpt lat="43.73734" lon="6.76072">
        <ele>929.60272216797</ele>
        <time>2016-11-06T14:55:41.000Z</time>
      </trkpt>
      <trkpt lat="43.73733" lon="6.76074">
        <ele>929.28985595703</ele>
        <time>2016-11-06T14:55:43.000Z</time>
      </trkpt>
      <trkpt lat="43.73732" lon="6.76079">
        <ele>929.02410888672</ele>
        <time>2016-11-06T14:55:46.000Z</time>
      </trkpt>
      <trkpt lat="43.73731" lon="6.76082">
        <ele>928.76550292969</ele>
        <time>2016-11-06T14:55:48.000Z</time>
      </trkpt>
      <trkpt lat="43.7373" lon="6.76087">
        <ele>928.55236816406</ele>
        <time>2016-11-06T14:55:51.000Z</time>
      </trkpt>
      <trkpt lat="43.7373" lon="6.7609">
        <ele>928.3916015625</ele>
        <time>2016-11-06T14:55:53.000Z</time>
      </trkpt>
      <trkpt lat="43.7373" lon="6.76093">
        <ele>928.22302246094</ele>
        <time>2016-11-06T14:55:55.000Z</time>
      </trkpt>
      <trkpt lat="43.7373" lon="6.76098">
        <ele>928.09161376953</ele>
        <time>2016-11-06T14:55:58.000Z</time>
      </trkpt>
      <trkpt lat="43.73729" lon="6.76101">
        <ele>927.96844482422</ele>
        <time>2016-11-06T14:56:00.000Z</time>
      </trkpt>
      <trkpt lat="43.73729" lon="6.76104">
        <ele>927.86242675781</ele>
        <time>2016-11-06T14:56:02.000Z</time>
      </trkpt>
      <trkpt lat="43.73728" lon="6.76108">
        <ele>927.72131347656</ele>
        <time>2016-11-06T14:56:05.000Z</time>
      </trkpt>
      <trkpt lat="43.73727" lon="6.7611">
        <ele>927.58044433594</ele>
        <time>2016-11-06T14:56:07.000Z</time>
      </trkpt>
      <trkpt lat="43.73726" lon="6.76114">
        <ele>927.373046875</ele>
        <time>2016-11-06T14:56:10.000Z</time>
      </trkpt>
      <trkpt lat="43.73725" lon="6.76116">
        <ele>927.16491699219</ele>
        <time>2016-11-06T14:56:12.000Z</time>
      </trkpt>
      <trkpt lat="43.73723" lon="6.7612">
        <ele>926.8994140625</ele>
        <time>2016-11-06T14:56:15.000Z</time>
      </trkpt>
      <trkpt lat="43.73722" lon="6.76123">
        <ele>926.61657714844</ele>
        <time>2016-11-06T14:56:17.000Z</time>
      </trkpt>
      <trkpt lat="43.73721" lon="6.76126">
        <ele>926.31213378906</ele>
        <time>2016-11-06T14:56:20.000Z</time>
      </trkpt>
      <trkpt lat="43.73719" lon="6.76129">
        <ele>925.98645019531</ele>
        <time>2016-11-06T14:56:23.000Z</time>
      </trkpt>
      <trkpt lat="43.73717" lon="6.76131">
        <ele>925.62145996094</ele>
        <time>2016-11-06T14:56:26.000Z</time>
      </trkpt>
      <trkpt lat="43.73716" lon="6.76133">
        <ele>925.2568359375</ele>
        <time>2016-11-06T14:56:29.000Z</time>
      </trkpt>
      <trkpt lat="43.73715" lon="6.76134">
        <ele>924.91192626953</ele>
        <time>2016-11-06T14:56:31.000Z</time>
      </trkpt>
      <trkpt lat="43.73713" lon="6.76135">
        <ele>924.53839111328</ele>
        <time>2016-11-06T14:56:33.000Z</time>
      </trkpt>
      <trkpt lat="43.73711" lon="6.76135">
        <ele>924.15466308594</ele>
        <time>2016-11-06T14:56:36.000Z</time>
      </trkpt>
      <trkpt lat="43.73709" lon="6.76136">
        <ele>923.77362060547</ele>
        <time>2016-11-06T14:56:38.000Z</time>
      </trkpt>
      <trkpt lat="43.73708" lon="6.7614">
        <ele>923.41943359375</ele>
        <time>2016-11-06T14:56:41.000Z</time>
      </trkpt>
      <trkpt lat="43.73707" lon="6.76143">
        <ele>923.01629638672</ele>
        <time>2016-11-06T14:56:43.000Z</time>
      </trkpt>
      <trkpt lat="43.73706" lon="6.76148">
        <ele>922.64532470703</ele>
        <time>2016-11-06T14:56:46.000Z</time>
      </trkpt>
      <trkpt lat="43.73708" lon="6.76151">
        <ele>922.46160888672</ele>
        <time>2016-11-06T14:56:49.000Z</time>
      </trkpt>
      <trkpt lat="43.7371" lon="6.76154">
        <ele>922.39874267578</ele>
        <time>2016-11-06T14:56:51.000Z</time>
      </trkpt>
      <trkpt lat="43.73711" lon="6.76158">
        <ele>922.44677734375</ele>
        <time>2016-11-06T14:56:54.000Z</time>
      </trkpt>
      <trkpt lat="43.73713" lon="6.76162">
        <ele>922.64392089844</ele>
        <time>2016-11-06T14:56:57.000Z</time>
      </trkpt>
      <trkpt lat="43.73715" lon="6.76166">
        <ele>922.96319580078</ele>
        <time>2016-11-06T14:57:00.000Z</time>
      </trkpt>
      <trkpt lat="43.73716" lon="6.76169">
        <ele>923.22521972656</ele>
        <time>2016-11-06T14:57:02.000Z</time>
      </trkpt>
      <trkpt lat="43.73718" lon="6.76173">
        <ele>923.52801513672</ele>
        <time>2016-11-06T14:57:05.000Z</time>
      </trkpt>
      <trkpt lat="43.7372" lon="6.76176">
        <ele>923.82537841797</ele>
        <time>2016-11-06T14:57:07.000Z</time>
      </trkpt>
      <trkpt lat="43.7372" lon="6.76179">
        <ele>924.06286621094</ele>
        <time>2016-11-06T14:57:10.000Z</time>
      </trkpt>
      <trkpt lat="43.73721" lon="6.76183">
        <ele>924.20861816406</ele>
        <time>2016-11-06T14:57:13.000Z</time>
      </trkpt>
      <trkpt lat="43.73721" lon="6.76184">
        <ele>924.32012939453</ele>
        <time>2016-11-06T14:57:15.000Z</time>
      </trkpt>
      <trkpt lat="43.73721" lon="6.76187">
        <ele>924.32824707031</ele>
        <time>2016-11-06T14:57:17.000Z</time>
      </trkpt>
      <trkpt lat="43.73722" lon="6.76191">
        <ele>924.3212890625</ele>
        <time>2016-11-06T14:57:20.000Z</time>
      </trkpt>
      <trkpt lat="43.73723" lon="6.76194">
        <ele>924.32733154297</ele>
        <time>2016-11-06T14:57:22.000Z</time>
      </trkpt>
      <trkpt lat="43.73724" lon="6.76197">
        <ele>924.35955810547</ele>
        <time>2016-11-06T14:57:24.000Z</time>
      </trkpt>
      <trkpt lat="43.73725" lon="6.762">
        <ele>924.41052246094</ele>
        <time>2016-11-06T14:57:27.000Z</time>
      </trkpt>
      <trkpt lat="43.73726" lon="6.76204">
        <ele>924.49841308594</ele>
        <time>2016-11-06T14:57:30.000Z</time>
      </trkpt>
      <trkpt lat="43.73727" lon="6.76208">
        <ele>924.55505371094</ele>
        <time>2016-11-06T14:57:32.000Z</time>
      </trkpt>
      <trkpt lat="43.73727" lon="6.76213">
        <ele>924.55651855469</ele>
        <time>2016-11-06T14:57:35.000Z</time>
      </trkpt>
      <trkpt lat="43.73727" lon="6.76215">
        <ele>924.521484375</ele>
        <time>2016-11-06T14:57:37.000Z</time>
      </trkpt>
      <trkpt lat="43.73726" lon="6.76218">
        <ele>924.43859863281</ele>
        <time>2016-11-06T14:57:39.000Z</time>
      </trkpt>
      <trkpt lat="43.73727" lon="6.76222">
        <ele>924.33410644531</ele>
        <time>2016-11-06T14:57:42.000Z</time>
      </trkpt>
      <trkpt lat="43.73727" lon="6.76227">
        <ele>924.17010498047</ele>
        <time>2016-11-06T14:57:45.000Z</time>
      </trkpt>
      <trkpt lat="43.73726" lon="6.7623">
        <ele>923.98565673828</ele>
        <time>2016-11-06T14:57:48.000Z</time>
      </trkpt>
      <trkpt lat="43.73725" lon="6.76234">
        <ele>923.76208496094</ele>
        <time>2016-11-06T14:57:51.000Z</time>
      </trkpt>
      <trkpt lat="43.73725" lon="6.76237">
        <ele>923.55310058594</ele>
        <time>2016-11-06T14:57:53.000Z</time>
      </trkpt>
      <trkpt lat="43.73725" lon="6.76241">
        <ele>923.318359375</ele>
        <time>2016-11-06T14:57:55.000Z</time>
      </trkpt>
      <trkpt lat="43.73725" lon="6.76245">
        <ele>923.08331298828</ele>
        <time>2016-11-06T14:57:58.000Z</time>
      </trkpt>
      <trkpt lat="43.73724" lon="6.76248">
        <ele>922.86999511719</ele>
        <time>2016-11-06T14:58:00.000Z</time>
      </trkpt>
      <trkpt lat="43.73724" lon="6.76253">
        <ele>922.66033935547</ele>
        <time>2016-11-06T14:58:03.000Z</time>
      </trkpt>
      <trkpt lat="43.73724" lon="6.76258">
        <ele>922.41833496094</ele>
        <time>2016-11-06T14:58:06.000Z</time>
      </trkpt>
      <trkpt lat="43.73723" lon="6.76261">
        <ele>922.13983154297</ele>
        <time>2016-11-06T14:58:09.000Z</time>
      </trkpt>
      <trkpt lat="43.73722" lon="6.76266">
        <ele>921.83190917969</ele>
        <time>2016-11-06T14:58:12.000Z</time>
      </trkpt>
      <trkpt lat="43.7372" lon="6.7627">
        <ele>921.48107910156</ele>
        <time>2016-11-06T14:58:15.000Z</time>
      </trkpt>
      <trkpt lat="43.73719" lon="6.76274">
        <ele>921.10723876953</ele>
        <time>2016-11-06T14:58:18.000Z</time>
      </trkpt>
      <trkpt lat="43.73718" lon="6.76277">
        <ele>920.74182128906</ele>
        <time>2016-11-06T14:58:20.000Z</time>
      </trkpt>
      <trkpt lat="43.73717" lon="6.76281">
        <ele>920.36541748047</ele>
        <time>2016-11-06T14:58:23.000Z</time>
      </trkpt>
      <trkpt lat="43.73716" lon="6.76285">
        <ele>919.99230957031</ele>
        <time>2016-11-06T14:58:26.000Z</time>
      </trkpt>
      <trkpt lat="43.73715" lon="6.76289">
        <ele>919.63806152344</ele>
        <time>2016-11-06T14:58:29.000Z</time>
      </trkpt>
      <trkpt lat="43.73714" lon="6.76292">
        <ele>919.3271484375</ele>
        <time>2016-11-06T14:58:31.000Z</time>
      </trkpt>
      <trkpt lat="43.73714" lon="6.76295">
        <ele>919.02655029297</ele>
        <time>2016-11-06T14:58:33.000Z</time>
      </trkpt>
      <trkpt lat="43.73714" lon="6.76299">
        <ele>918.75793457031</ele>
        <time>2016-11-06T14:58:35.000Z</time>
      </trkpt>
      <trkpt lat="43.73713" lon="6.76302">
        <ele>918.50128173828</ele>
        <time>2016-11-06T14:58:37.000Z</time>
      </trkpt>
      <trkpt lat="43.73711" lon="6.76307">
        <ele>918.2294921875</ele>
        <time>2016-11-06T14:58:40.000Z</time>
      </trkpt>
      <trkpt lat="43.7371" lon="6.76312">
        <ele>917.90069580078</ele>
        <time>2016-11-06T14:58:43.000Z</time>
      </trkpt>
      <trkpt lat="43.73709" lon="6.76315">
        <ele>917.57403564453</ele>
        <time>2016-11-06T14:58:45.000Z</time>
      </trkpt>
      <trkpt lat="43.73708" lon="6.7632">
        <ele>917.20520019531</ele>
        <time>2016-11-06T14:58:48.000Z</time>
      </trkpt>
      <trkpt lat="43.73706" lon="6.76323">
        <ele>916.84161376953</ele>
        <time>2016-11-06T14:58:50.000Z</time>
      </trkpt>
      <trkpt lat="43.73705" lon="6.76328">
        <ele>916.46014404297</ele>
        <time>2016-11-06T14:58:53.000Z</time>
      </trkpt>
      <trkpt lat="43.73703" lon="6.76332">
        <ele>916.09228515625</ele>
        <time>2016-11-06T14:58:56.000Z</time>
      </trkpt>
      <trkpt lat="43.73701" lon="6.76335">
        <ele>915.75994873047</ele>
        <time>2016-11-06T14:58:59.000Z</time>
      </trkpt>
      <trkpt lat="43.73701" lon="6.76338">
        <ele>915.53564453125</ele>
        <time>2016-11-06T14:59:01.000Z</time>
      </trkpt>
      <trkpt lat="43.737" lon="6.76342">
        <ele>915.42559814453</ele>
        <time>2016-11-06T14:59:04.000Z</time>
      </trkpt>
      <trkpt lat="43.73698" lon="6.76345">
        <ele>915.44152832031</ele>
        <time>2016-11-06T14:59:06.000Z</time>
      </trkpt>
      <trkpt lat="43.73697" lon="6.76349">
        <ele>915.57794189453</ele>
        <time>2016-11-06T14:59:09.000Z</time>
      </trkpt>
      <trkpt lat="43.73694" lon="6.76352">
        <ele>915.70928955078</ele>
        <time>2016-11-06T14:59:12.000Z</time>
      </trkpt>
      <trkpt lat="43.73692" lon="6.76353">
        <ele>915.78466796875</ele>
        <time>2016-11-06T14:59:14.000Z</time>
      </trkpt>
      <trkpt lat="43.7369" lon="6.76352">
        <ele>915.72735595703</ele>
        <time>2016-11-06T14:59:17.000Z</time>
      </trkpt>
      <trkpt lat="43.73688" lon="6.76351">
        <ele>915.5615234375</ele>
        <time>2016-11-06T14:59:19.000Z</time>
      </trkpt>
      <trkpt lat="43.73687" lon="6.76347">
        <ele>915.23028564453</ele>
        <time>2016-11-06T14:59:22.000Z</time>
      </trkpt>
      <trkpt lat="43.73687" lon="6.76347">
        <ele>915.23028564453</ele>
        <time>2016-11-06T14:59:24.000Z</time>
      </trkpt>
    </trkseg>
  </trk>
</gpx>